<?xml version="1.0" encoding="UTF-8" standalone="no" ?>
<gpx xmlns="http://www.topografix.com/GPX/1/1" xmlns:xsi="http://www.w3.org/2001/XMLSchema-instance" xsi:schemaLocation="http://www.topografix.com/GPX/1/1 http://www.topografix.com/GPX/1/1/gpx.xsd" version="1.1" creator="VisuGPX - https://www.visugpx.com">
  <metadata>
    <name>De Meudon à Issy-les-Moulineaux</name>
    <desc><![CDATA[Entre balade urbaine et pleine nature]]></desc>
  </metadata>
  <trk>
    <name><![CDATA[20181201110119-v2cey]]></name>
    <trkseg>
      <trkpt lat="48.808" lon="2.24127">
        <ele>124</ele>
        <time>2018-11-29T09:11:54 01:00</time>
      </trkpt>
      <trkpt lat="48.80803" lon="2.24115">
        <ele>124</ele>
        <time>2018-11-29T09:12:04 01:00</time>
      </trkpt>
      <trkpt lat="48.80802" lon="2.24101">
        <ele>122</ele>
        <time>2018-11-29T09:12:13 01:00</time>
      </trkpt>
      <trkpt lat="48.80795" lon="2.24093">
        <ele>123</ele>
        <time>2018-11-29T09:12:21 01:00</time>
      </trkpt>
      <trkpt lat="48.8079" lon="2.24081">
        <ele>132</ele>
        <time>2018-11-29T09:12:30 01:00</time>
      </trkpt>
      <trkpt lat="48.80781" lon="2.24075">
        <ele>128</ele>
        <time>2018-11-29T09:12:43 01:00</time>
      </trkpt>
      <trkpt lat="48.80773" lon="2.24069">
        <ele>124</ele>
        <time>2018-11-29T09:12:51 01:00</time>
      </trkpt>
      <trkpt lat="48.80764" lon="2.24063">
        <ele>122</ele>
        <time>2018-11-29T09:12:59 01:00</time>
      </trkpt>
      <trkpt lat="48.80755" lon="2.24058">
        <ele>120</ele>
        <time>2018-11-29T09:13:07 01:00</time>
      </trkpt>
      <trkpt lat="48.80747" lon="2.24052">
        <ele>119</ele>
        <time>2018-11-29T09:13:15 01:00</time>
      </trkpt>
      <trkpt lat="48.8074" lon="2.24044">
        <ele>119</ele>
        <time>2018-11-29T09:13:23 01:00</time>
      </trkpt>
      <trkpt lat="48.80732" lon="2.24034">
        <ele>121</ele>
        <time>2018-11-29T09:13:33 01:00</time>
      </trkpt>
      <trkpt lat="48.80724" lon="2.24029">
        <ele>121</ele>
        <time>2018-11-29T09:13:44 01:00</time>
      </trkpt>
      <trkpt lat="48.80716" lon="2.2402">
        <ele>122</ele>
        <time>2018-11-29T09:13:54 01:00</time>
      </trkpt>
      <trkpt lat="48.80709" lon="2.24011">
        <ele>122</ele>
        <time>2018-11-29T09:14:03 01:00</time>
      </trkpt>
      <trkpt lat="48.80701" lon="2.24002">
        <ele>126</ele>
        <time>2018-11-29T09:14:11 01:00</time>
      </trkpt>
      <trkpt lat="48.80691" lon="2.23998">
        <ele>128</ele>
        <time>2018-11-29T09:14:19 01:00</time>
      </trkpt>
      <trkpt lat="48.80683" lon="2.23992">
        <ele>128</ele>
        <time>2018-11-29T09:14:27 01:00</time>
      </trkpt>
      <trkpt lat="48.80675" lon="2.23983">
        <ele>129</ele>
        <time>2018-11-29T09:14:36 01:00</time>
      </trkpt>
      <trkpt lat="48.80669" lon="2.23973">
        <ele>128</ele>
        <time>2018-11-29T09:14:47 01:00</time>
      </trkpt>
      <trkpt lat="48.80662" lon="2.23964">
        <ele>130</ele>
        <time>2018-11-29T09:14:57 01:00</time>
      </trkpt>
      <trkpt lat="48.80654" lon="2.23956">
        <ele>128</ele>
        <time>2018-11-29T09:15:07 01:00</time>
      </trkpt>
      <trkpt lat="48.80647" lon="2.23949">
        <ele>133</ele>
        <time>2018-11-29T09:15:17 01:00</time>
      </trkpt>
      <trkpt lat="48.80642" lon="2.23961">
        <ele>130</ele>
        <time>2018-11-29T09:15:55 01:00</time>
      </trkpt>
      <trkpt lat="48.80642" lon="2.23975">
        <ele>134</ele>
        <time>2018-11-29T09:16:04 01:00</time>
      </trkpt>
      <trkpt lat="48.8064" lon="2.23989">
        <ele>131</ele>
        <time>2018-11-29T09:16:16 01:00</time>
      </trkpt>
      <trkpt lat="48.80639" lon="2.24002">
        <ele>129</ele>
        <time>2018-11-29T09:16:26 01:00</time>
      </trkpt>
      <trkpt lat="48.80639" lon="2.24017">
        <ele>131</ele>
        <time>2018-11-29T09:16:41 01:00</time>
      </trkpt>
      <trkpt lat="48.80637" lon="2.24031">
        <ele>128</ele>
        <time>2018-11-29T09:17:02 01:00</time>
      </trkpt>
      <trkpt lat="48.80636" lon="2.24044">
        <ele>128</ele>
        <time>2018-11-29T09:17:14 01:00</time>
      </trkpt>
      <trkpt lat="48.80632" lon="2.24058">
        <ele>126</ele>
        <time>2018-11-29T09:17:23 01:00</time>
      </trkpt>
      <trkpt lat="48.80629" lon="2.24072">
        <ele>127</ele>
        <time>2018-11-29T09:17:30 01:00</time>
      </trkpt>
      <trkpt lat="48.80627" lon="2.24085">
        <ele>125</ele>
        <time>2018-11-29T09:17:37 01:00</time>
      </trkpt>
      <trkpt lat="48.80623" lon="2.24099">
        <ele>125</ele>
        <time>2018-11-29T09:17:42 01:00</time>
      </trkpt>
      <trkpt lat="48.8062" lon="2.24114">
        <ele>125</ele>
        <time>2018-11-29T09:17:48 01:00</time>
      </trkpt>
      <trkpt lat="48.80618" lon="2.24127">
        <ele>123</ele>
        <time>2018-11-29T09:17:57 01:00</time>
      </trkpt>
      <trkpt lat="48.80622" lon="2.2414">
        <ele>131</ele>
        <time>2018-11-29T09:18:12 01:00</time>
      </trkpt>
      <trkpt lat="48.80623" lon="2.24154">
        <ele>128</ele>
        <time>2018-11-29T09:18:22 01:00</time>
      </trkpt>
      <trkpt lat="48.8062" lon="2.24168">
        <ele>132</ele>
        <time>2018-11-29T09:18:42 01:00</time>
      </trkpt>
      <trkpt lat="48.80622" lon="2.24182">
        <ele>133</ele>
        <time>2018-11-29T09:18:57 01:00</time>
      </trkpt>
      <trkpt lat="48.80626" lon="2.24194">
        <ele>135</ele>
        <time>2018-11-29T09:19:09 01:00</time>
      </trkpt>
      <trkpt lat="48.8063" lon="2.24207">
        <ele>135</ele>
        <time>2018-11-29T09:19:24 01:00</time>
      </trkpt>
      <trkpt lat="48.80628" lon="2.24221">
        <ele>139</ele>
        <time>2018-11-29T09:19:34 01:00</time>
      </trkpt>
      <trkpt lat="48.80624" lon="2.24236">
        <ele>136</ele>
        <time>2018-11-29T09:19:50 01:00</time>
      </trkpt>
      <trkpt lat="48.8062" lon="2.24248">
        <ele>139</ele>
        <time>2018-11-29T09:19:59 01:00</time>
      </trkpt>
      <trkpt lat="48.8062" lon="2.24262">
        <ele>148</ele>
        <time>2018-11-29T09:20:18 01:00</time>
      </trkpt>
      <trkpt lat="48.80613" lon="2.2427">
        <ele>140</ele>
        <time>2018-11-29T09:20:29 01:00</time>
      </trkpt>
      <trkpt lat="48.80604" lon="2.2427">
        <ele>142</ele>
        <time>2018-11-29T09:20:39 01:00</time>
      </trkpt>
      <trkpt lat="48.80597" lon="2.2426">
        <ele>142</ele>
        <time>2018-11-29T09:20:50 01:00</time>
      </trkpt>
      <trkpt lat="48.80591" lon="2.24249">
        <ele>140</ele>
        <time>2018-11-29T09:20:59 01:00</time>
      </trkpt>
      <trkpt lat="48.80588" lon="2.24236">
        <ele>138</ele>
        <time>2018-11-29T09:21:11 01:00</time>
      </trkpt>
      <trkpt lat="48.80585" lon="2.24223">
        <ele>139</ele>
        <time>2018-11-29T09:21:21 01:00</time>
      </trkpt>
      <trkpt lat="48.80576" lon="2.24219">
        <ele>139</ele>
        <time>2018-11-29T09:21:32 01:00</time>
      </trkpt>
      <trkpt lat="48.80568" lon="2.24226">
        <ele>137</ele>
        <time>2018-11-29T09:21:45 01:00</time>
      </trkpt>
      <trkpt lat="48.80558" lon="2.24232">
        <ele>136</ele>
        <time>2018-11-29T09:21:57 01:00</time>
      </trkpt>
      <trkpt lat="48.80551" lon="2.24241">
        <ele>139</ele>
        <time>2018-11-29T09:22:05 01:00</time>
      </trkpt>
      <trkpt lat="48.80542" lon="2.24245">
        <ele>142</ele>
        <time>2018-11-29T09:22:14 01:00</time>
      </trkpt>
      <trkpt lat="48.80535" lon="2.24254">
        <ele>141</ele>
        <time>2018-11-29T09:22:27 01:00</time>
      </trkpt>
      <trkpt lat="48.80528" lon="2.24264">
        <ele>143</ele>
        <time>2018-11-29T09:22:38 01:00</time>
      </trkpt>
      <trkpt lat="48.80523" lon="2.24276">
        <ele>145</ele>
        <time>2018-11-29T09:22:51 01:00</time>
      </trkpt>
      <trkpt lat="48.8052" lon="2.24291">
        <ele>145</ele>
        <time>2018-11-29T09:23:02 01:00</time>
      </trkpt>
      <trkpt lat="48.80515" lon="2.24302">
        <ele>143</ele>
        <time>2018-11-29T09:23:16 01:00</time>
      </trkpt>
      <trkpt lat="48.80506" lon="2.24303">
        <ele>142</ele>
        <time>2018-11-29T09:23:27 01:00</time>
      </trkpt>
      <trkpt lat="48.80497" lon="2.24305">
        <ele>142</ele>
        <time>2018-11-29T09:23:39 01:00</time>
      </trkpt>
      <trkpt lat="48.80489" lon="2.24296">
        <ele>142</ele>
        <time>2018-11-29T09:23:53 01:00</time>
      </trkpt>
      <trkpt lat="48.80488" lon="2.24282">
        <ele>147</ele>
        <time>2018-11-29T09:24:03 01:00</time>
      </trkpt>
      <trkpt lat="48.80486" lon="2.24268">
        <ele>148</ele>
        <time>2018-11-29T09:24:16 01:00</time>
      </trkpt>
      <trkpt lat="48.80486" lon="2.24254">
        <ele>146</ele>
        <time>2018-11-29T09:24:28 01:00</time>
      </trkpt>
      <trkpt lat="48.80477" lon="2.24256">
        <ele>148</ele>
        <time>2018-11-29T09:24:42 01:00</time>
      </trkpt>
      <trkpt lat="48.80468" lon="2.24251">
        <ele>148</ele>
        <time>2018-11-29T09:24:54 01:00</time>
      </trkpt>
      <trkpt lat="48.80461" lon="2.24241">
        <ele>148</ele>
        <time>2018-11-29T09:25:04 01:00</time>
      </trkpt>
      <trkpt lat="48.80456" lon="2.2423">
        <ele>148</ele>
        <time>2018-11-29T09:25:14 01:00</time>
      </trkpt>
      <trkpt lat="48.80448" lon="2.24221">
        <ele>150</ele>
        <time>2018-11-29T09:25:25 01:00</time>
      </trkpt>
      <trkpt lat="48.80445" lon="2.24208">
        <ele>151</ele>
        <time>2018-11-29T09:25:34 01:00</time>
      </trkpt>
      <trkpt lat="48.80435" lon="2.24205">
        <ele>149</ele>
        <time>2018-11-29T09:25:47 01:00</time>
      </trkpt>
      <trkpt lat="48.8043" lon="2.24218">
        <ele>148</ele>
        <time>2018-11-29T09:25:58 01:00</time>
      </trkpt>
      <trkpt lat="48.80427" lon="2.24231">
        <ele>148</ele>
        <time>2018-11-29T09:26:09 01:00</time>
      </trkpt>
      <trkpt lat="48.80423" lon="2.24245">
        <ele>150</ele>
        <time>2018-11-29T09:26:18 01:00</time>
      </trkpt>
      <trkpt lat="48.8042" lon="2.24259">
        <ele>155</ele>
        <time>2018-11-29T09:26:28 01:00</time>
      </trkpt>
      <trkpt lat="48.80418" lon="2.24273">
        <ele>155</ele>
        <time>2018-11-29T09:26:37 01:00</time>
      </trkpt>
      <trkpt lat="48.80412" lon="2.24284">
        <ele>154</ele>
        <time>2018-11-29T09:26:44 01:00</time>
      </trkpt>
      <trkpt lat="48.80406" lon="2.24294">
        <ele>155</ele>
        <time>2018-11-29T09:26:52 01:00</time>
      </trkpt>
      <trkpt lat="48.804" lon="2.24306">
        <ele>152</ele>
        <time>2018-11-29T09:27:01 01:00</time>
      </trkpt>
      <trkpt lat="48.80393" lon="2.24296">
        <ele>154</ele>
        <time>2018-11-29T09:27:32 01:00</time>
      </trkpt>
      <trkpt lat="48.80386" lon="2.24287">
        <ele>161</ele>
        <time>2018-11-29T09:27:45 01:00</time>
      </trkpt>
      <trkpt lat="48.8038" lon="2.24274">
        <ele>163</ele>
        <time>2018-11-29T09:27:53 01:00</time>
      </trkpt>
      <trkpt lat="48.80374" lon="2.24264">
        <ele>163</ele>
        <time>2018-11-29T09:28:01 01:00</time>
      </trkpt>
      <trkpt lat="48.80366" lon="2.24257">
        <ele>162</ele>
        <time>2018-11-29T09:28:11 01:00</time>
      </trkpt>
      <trkpt lat="48.80359" lon="2.24247">
        <ele>162</ele>
        <time>2018-11-29T09:28:21 01:00</time>
      </trkpt>
      <trkpt lat="48.80352" lon="2.24239">
        <ele>158</ele>
        <time>2018-11-29T09:28:31 01:00</time>
      </trkpt>
      <trkpt lat="48.80343" lon="2.24233">
        <ele>156</ele>
        <time>2018-11-29T09:28:41 01:00</time>
      </trkpt>
      <trkpt lat="48.80334" lon="2.24231">
        <ele>157</ele>
        <time>2018-11-29T09:28:53 01:00</time>
      </trkpt>
      <trkpt lat="48.80325" lon="2.24226">
        <ele>158</ele>
        <time>2018-11-29T09:29:03 01:00</time>
      </trkpt>
      <trkpt lat="48.80316" lon="2.2422">
        <ele>160</ele>
        <time>2018-11-29T09:29:14 01:00</time>
      </trkpt>
      <trkpt lat="48.80308" lon="2.24214">
        <ele>158</ele>
        <time>2018-11-29T09:29:26 01:00</time>
      </trkpt>
      <trkpt lat="48.80301" lon="2.24206">
        <ele>158</ele>
        <time>2018-11-29T09:29:40 01:00</time>
      </trkpt>
      <trkpt lat="48.80291" lon="2.24205">
        <ele>154</ele>
        <time>2018-11-29T09:29:57 01:00</time>
      </trkpt>
      <trkpt lat="48.80282" lon="2.24205">
        <ele>154</ele>
        <time>2018-11-29T09:30:04 01:00</time>
      </trkpt>
      <trkpt lat="48.80272" lon="2.24207">
        <ele>154</ele>
        <time>2018-11-29T09:30:15 01:00</time>
      </trkpt>
      <trkpt lat="48.80263" lon="2.24211">
        <ele>155</ele>
        <time>2018-11-29T09:30:26 01:00</time>
      </trkpt>
      <trkpt lat="48.80255" lon="2.24216">
        <ele>155</ele>
        <time>2018-11-29T09:30:34 01:00</time>
      </trkpt>
      <trkpt lat="48.80245" lon="2.24216">
        <ele>155</ele>
        <time>2018-11-29T09:30:43 01:00</time>
      </trkpt>
      <trkpt lat="48.80237" lon="2.24211">
        <ele>158</ele>
        <time>2018-11-29T09:30:51 01:00</time>
      </trkpt>
      <trkpt lat="48.80227" lon="2.24208">
        <ele>158</ele>
        <time>2018-11-29T09:31:00 01:00</time>
      </trkpt>
      <trkpt lat="48.80218" lon="2.24206">
        <ele>153</ele>
        <time>2018-11-29T09:31:14 01:00</time>
      </trkpt>
      <trkpt lat="48.80211" lon="2.24196">
        <ele>155</ele>
        <time>2018-11-29T09:31:21 01:00</time>
      </trkpt>
      <trkpt lat="48.80202" lon="2.24191">
        <ele>165</ele>
        <time>2018-11-29T09:31:28 01:00</time>
      </trkpt>
      <trkpt lat="48.80193" lon="2.24193">
        <ele>162</ele>
        <time>2018-11-29T09:31:40 01:00</time>
      </trkpt>
      <trkpt lat="48.80184" lon="2.24199">
        <ele>159</ele>
        <time>2018-11-29T09:31:50 01:00</time>
      </trkpt>
      <trkpt lat="48.80175" lon="2.24203">
        <ele>160</ele>
        <time>2018-11-29T09:31:57 01:00</time>
      </trkpt>
      <trkpt lat="48.80165" lon="2.24209">
        <ele>158</ele>
        <time>2018-11-29T09:32:05 01:00</time>
      </trkpt>
      <trkpt lat="48.80157" lon="2.24213">
        <ele>158</ele>
        <time>2018-11-29T09:32:11 01:00</time>
      </trkpt>
      <trkpt lat="48.80147" lon="2.24215">
        <ele>158</ele>
        <time>2018-11-29T09:32:17 01:00</time>
      </trkpt>
      <trkpt lat="48.80138" lon="2.24214">
        <ele>158</ele>
        <time>2018-11-29T09:32:28 01:00</time>
      </trkpt>
      <trkpt lat="48.80131" lon="2.24206">
        <ele>153</ele>
        <time>2018-11-29T09:32:48 01:00</time>
      </trkpt>
      <trkpt lat="48.80121" lon="2.24204">
        <ele>154</ele>
        <time>2018-11-29T09:32:59 01:00</time>
      </trkpt>
      <trkpt lat="48.80112" lon="2.24199">
        <ele>158</ele>
        <time>2018-11-29T09:33:08 01:00</time>
      </trkpt>
      <trkpt lat="48.80105" lon="2.2419">
        <ele>163</ele>
        <time>2018-11-29T09:33:14 01:00</time>
      </trkpt>
      <trkpt lat="48.80096" lon="2.24185">
        <ele>163</ele>
        <time>2018-11-29T09:33:24 01:00</time>
      </trkpt>
      <trkpt lat="48.80087" lon="2.24181">
        <ele>162</ele>
        <time>2018-11-29T09:33:37 01:00</time>
      </trkpt>
      <trkpt lat="48.80078" lon="2.24178">
        <ele>161</ele>
        <time>2018-11-29T09:33:50 01:00</time>
      </trkpt>
      <trkpt lat="48.80074" lon="2.24165">
        <ele>162</ele>
        <time>2018-11-29T09:33:58 01:00</time>
      </trkpt>
      <trkpt lat="48.80074" lon="2.2415">
        <ele>167</ele>
        <time>2018-11-29T09:34:07 01:00</time>
      </trkpt>
      <trkpt lat="48.8007" lon="2.24137">
        <ele>166</ele>
        <time>2018-11-29T09:34:15 01:00</time>
      </trkpt>
      <trkpt lat="48.80066" lon="2.24123">
        <ele>163</ele>
        <time>2018-11-29T09:34:25 01:00</time>
      </trkpt>
      <trkpt lat="48.8006" lon="2.24112">
        <ele>156</ele>
        <time>2018-11-29T09:34:38 01:00</time>
      </trkpt>
      <trkpt lat="48.80057" lon="2.24098">
        <ele>159</ele>
        <time>2018-11-29T09:34:49 01:00</time>
      </trkpt>
      <trkpt lat="48.80051" lon="2.24087">
        <ele>158</ele>
        <time>2018-11-29T09:34:56 01:00</time>
      </trkpt>
      <trkpt lat="48.80044" lon="2.24076">
        <ele>158</ele>
        <time>2018-11-29T09:35:04 01:00</time>
      </trkpt>
      <trkpt lat="48.80037" lon="2.24065">
        <ele>162</ele>
        <time>2018-11-29T09:35:10 01:00</time>
      </trkpt>
      <trkpt lat="48.80028" lon="2.24059">
        <ele>164</ele>
        <time>2018-11-29T09:35:17 01:00</time>
      </trkpt>
      <trkpt lat="48.80019" lon="2.24053">
        <ele>164</ele>
        <time>2018-11-29T09:35:25 01:00</time>
      </trkpt>
      <trkpt lat="48.8001" lon="2.24047">
        <ele>165</ele>
        <time>2018-11-29T09:35:34 01:00</time>
      </trkpt>
      <trkpt lat="48.80002" lon="2.24044">
        <ele>163</ele>
        <time>2018-11-29T09:35:45 01:00</time>
      </trkpt>
      <trkpt lat="48.79993" lon="2.2404">
        <ele>166</ele>
        <time>2018-11-29T09:35:54 01:00</time>
      </trkpt>
      <trkpt lat="48.79984" lon="2.24034">
        <ele>165</ele>
        <time>2018-11-29T09:36:03 01:00</time>
      </trkpt>
      <trkpt lat="48.79976" lon="2.24027">
        <ele>163</ele>
        <time>2018-11-29T09:36:10 01:00</time>
      </trkpt>
      <trkpt lat="48.79968" lon="2.24019">
        <ele>166</ele>
        <time>2018-11-29T09:36:20 01:00</time>
      </trkpt>
      <trkpt lat="48.7996" lon="2.24012">
        <ele>169</ele>
        <time>2018-11-29T09:36:31 01:00</time>
      </trkpt>
      <trkpt lat="48.79952" lon="2.24005">
        <ele>167</ele>
        <time>2018-11-29T09:36:41 01:00</time>
      </trkpt>
      <trkpt lat="48.79942" lon="2.23999">
        <ele>166</ele>
        <time>2018-11-29T09:36:50 01:00</time>
      </trkpt>
      <trkpt lat="48.79934" lon="2.23992">
        <ele>165</ele>
        <time>2018-11-29T09:37:00 01:00</time>
      </trkpt>
      <trkpt lat="48.79928" lon="2.23982">
        <ele>163</ele>
        <time>2018-11-29T09:37:10 01:00</time>
      </trkpt>
      <trkpt lat="48.79921" lon="2.23972">
        <ele>167</ele>
        <time>2018-11-29T09:37:19 01:00</time>
      </trkpt>
      <trkpt lat="48.79915" lon="2.2396">
        <ele>166</ele>
        <time>2018-11-29T09:37:28 01:00</time>
      </trkpt>
      <trkpt lat="48.7991" lon="2.23949">
        <ele>165</ele>
        <time>2018-11-29T09:37:37 01:00</time>
      </trkpt>
      <trkpt lat="48.79902" lon="2.2394">
        <ele>159</ele>
        <time>2018-11-29T09:37:54 01:00</time>
      </trkpt>
      <trkpt lat="48.79893" lon="2.23937">
        <ele>148</ele>
        <time>2018-11-29T09:38:12 01:00</time>
      </trkpt>
      <trkpt lat="48.79885" lon="2.23929">
        <ele>153</ele>
        <time>2018-11-29T09:38:25 01:00</time>
      </trkpt>
      <trkpt lat="48.79876" lon="2.23924">
        <ele>157</ele>
        <time>2018-11-29T09:38:32 01:00</time>
      </trkpt>
      <trkpt lat="48.79866" lon="2.23919">
        <ele>158</ele>
        <time>2018-11-29T09:38:39 01:00</time>
      </trkpt>
      <trkpt lat="48.79857" lon="2.23913">
        <ele>159</ele>
        <time>2018-11-29T09:38:46 01:00</time>
      </trkpt>
      <trkpt lat="48.79849" lon="2.23907">
        <ele>158</ele>
        <time>2018-11-29T09:38:53 01:00</time>
      </trkpt>
      <trkpt lat="48.79839" lon="2.23905">
        <ele>160</ele>
        <time>2018-11-29T09:39:02 01:00</time>
      </trkpt>
      <trkpt lat="48.79831" lon="2.239">
        <ele>160</ele>
        <time>2018-11-29T09:39:09 01:00</time>
      </trkpt>
      <trkpt lat="48.79822" lon="2.23895">
        <ele>160</ele>
        <time>2018-11-29T09:39:17 01:00</time>
      </trkpt>
      <trkpt lat="48.79813" lon="2.23889">
        <ele>157</ele>
        <time>2018-11-29T09:39:25 01:00</time>
      </trkpt>
      <trkpt lat="48.79804" lon="2.23885">
        <ele>156</ele>
        <time>2018-11-29T09:39:33 01:00</time>
      </trkpt>
      <trkpt lat="48.79795" lon="2.23885">
        <ele>155</ele>
        <time>2018-11-29T09:39:41 01:00</time>
      </trkpt>
      <trkpt lat="48.79786" lon="2.23886">
        <ele>153</ele>
        <time>2018-11-29T09:39:54 01:00</time>
      </trkpt>
      <trkpt lat="48.79777" lon="2.23884">
        <ele>153</ele>
        <time>2018-11-29T09:40:05 01:00</time>
      </trkpt>
      <trkpt lat="48.79768" lon="2.23883">
        <ele>153</ele>
        <time>2018-11-29T09:40:16 01:00</time>
      </trkpt>
      <trkpt lat="48.79761" lon="2.23873">
        <ele>155</ele>
        <time>2018-11-29T09:40:29 01:00</time>
      </trkpt>
      <trkpt lat="48.79754" lon="2.23865">
        <ele>151</ele>
        <time>2018-11-29T09:40:45 01:00</time>
      </trkpt>
      <trkpt lat="48.79748" lon="2.23855">
        <ele>145</ele>
        <time>2018-11-29T09:40:56 01:00</time>
      </trkpt>
      <trkpt lat="48.79741" lon="2.23845">
        <ele>147</ele>
        <time>2018-11-29T09:41:07 01:00</time>
      </trkpt>
      <trkpt lat="48.79734" lon="2.23835">
        <ele>148</ele>
        <time>2018-11-29T09:41:17 01:00</time>
      </trkpt>
      <trkpt lat="48.79726" lon="2.23827">
        <ele>148</ele>
        <time>2018-11-29T09:41:27 01:00</time>
      </trkpt>
      <trkpt lat="48.7972" lon="2.23816">
        <ele>149</ele>
        <time>2018-11-29T09:41:38 01:00</time>
      </trkpt>
      <trkpt lat="48.79713" lon="2.23806">
        <ele>148</ele>
        <time>2018-11-29T09:41:51 01:00</time>
      </trkpt>
      <trkpt lat="48.79705" lon="2.23799">
        <ele>144</ele>
        <time>2018-11-29T09:41:58 01:00</time>
      </trkpt>
      <trkpt lat="48.79696" lon="2.23799">
        <ele>142</ele>
        <time>2018-11-29T09:42:07 01:00</time>
      </trkpt>
      <trkpt lat="48.79688" lon="2.2379">
        <ele>146</ele>
        <time>2018-11-29T09:42:18 01:00</time>
      </trkpt>
      <trkpt lat="48.79681" lon="2.23779">
        <ele>147</ele>
        <time>2018-11-29T09:42:28 01:00</time>
      </trkpt>
      <trkpt lat="48.79675" lon="2.23767">
        <ele>150</ele>
        <time>2018-11-29T09:42:41 01:00</time>
      </trkpt>
      <trkpt lat="48.79668" lon="2.23758">
        <ele>151</ele>
        <time>2018-11-29T09:42:50 01:00</time>
      </trkpt>
      <trkpt lat="48.79661" lon="2.23748">
        <ele>154</ele>
        <time>2018-11-29T09:42:57 01:00</time>
      </trkpt>
      <trkpt lat="48.79655" lon="2.23738">
        <ele>154</ele>
        <time>2018-11-29T09:43:04 01:00</time>
      </trkpt>
      <trkpt lat="48.79647" lon="2.23728">
        <ele>152</ele>
        <time>2018-11-29T09:43:12 01:00</time>
      </trkpt>
      <trkpt lat="48.79641" lon="2.23717">
        <ele>148</ele>
        <time>2018-11-29T09:43:22 01:00</time>
      </trkpt>
      <trkpt lat="48.79636" lon="2.23706">
        <ele>147</ele>
        <time>2018-11-29T09:43:34 01:00</time>
      </trkpt>
      <trkpt lat="48.79629" lon="2.23697">
        <ele>151</ele>
        <time>2018-11-29T09:43:46 01:00</time>
      </trkpt>
      <trkpt lat="48.79619" lon="2.23696">
        <ele>156</ele>
        <time>2018-11-29T09:43:57 01:00</time>
      </trkpt>
      <trkpt lat="48.79615" lon="2.23684">
        <ele>154</ele>
        <time>2018-11-29T09:44:12 01:00</time>
      </trkpt>
      <trkpt lat="48.79608" lon="2.23673">
        <ele>159</ele>
        <time>2018-11-29T09:44:21 01:00</time>
      </trkpt>
      <trkpt lat="48.79599" lon="2.23667">
        <ele>153</ele>
        <time>2018-11-29T09:44:29 01:00</time>
      </trkpt>
      <trkpt lat="48.79592" lon="2.23659">
        <ele>153</ele>
        <time>2018-11-29T09:44:39 01:00</time>
      </trkpt>
      <trkpt lat="48.79583" lon="2.2365">
        <ele>156</ele>
        <time>2018-11-29T09:44:51 01:00</time>
      </trkpt>
      <trkpt lat="48.79577" lon="2.2364">
        <ele>157</ele>
        <time>2018-11-29T09:44:57 01:00</time>
      </trkpt>
      <trkpt lat="48.7957" lon="2.2363">
        <ele>158</ele>
        <time>2018-11-29T09:45:03 01:00</time>
      </trkpt>
      <trkpt lat="48.79562" lon="2.2362">
        <ele>160</ele>
        <time>2018-11-29T09:45:10 01:00</time>
      </trkpt>
      <trkpt lat="48.79559" lon="2.23632">
        <ele>152</ele>
        <time>2018-11-29T09:45:35 01:00</time>
      </trkpt>
      <trkpt lat="48.79561" lon="2.23646">
        <ele>148</ele>
        <time>2018-11-29T09:45:49 01:00</time>
      </trkpt>
      <trkpt lat="48.7956" lon="2.2366">
        <ele>148</ele>
        <time>2018-11-29T09:45:59 01:00</time>
      </trkpt>
      <trkpt lat="48.79556" lon="2.23673">
        <ele>150</ele>
        <time>2018-11-29T09:46:09 01:00</time>
      </trkpt>
      <trkpt lat="48.79551" lon="2.23686">
        <ele>150</ele>
        <time>2018-11-29T09:46:17 01:00</time>
      </trkpt>
      <trkpt lat="48.79549" lon="2.237">
        <ele>150</ele>
        <time>2018-11-29T09:46:24 01:00</time>
      </trkpt>
      <trkpt lat="48.79543" lon="2.23711">
        <ele>154</ele>
        <time>2018-11-29T09:46:33 01:00</time>
      </trkpt>
      <trkpt lat="48.7954" lon="2.23724">
        <ele>156</ele>
        <time>2018-11-29T09:46:40 01:00</time>
      </trkpt>
      <trkpt lat="48.79537" lon="2.23738">
        <ele>156</ele>
        <time>2018-11-29T09:46:48 01:00</time>
      </trkpt>
      <trkpt lat="48.79532" lon="2.23749">
        <ele>154</ele>
        <time>2018-11-29T09:46:55 01:00</time>
      </trkpt>
      <trkpt lat="48.79525" lon="2.2376">
        <ele>155</ele>
        <time>2018-11-29T09:47:06 01:00</time>
      </trkpt>
      <trkpt lat="48.79517" lon="2.23769">
        <ele>156</ele>
        <time>2018-11-29T09:47:18 01:00</time>
      </trkpt>
      <trkpt lat="48.7951" lon="2.23781">
        <ele>153</ele>
        <time>2018-11-29T09:47:28 01:00</time>
      </trkpt>
      <trkpt lat="48.79505" lon="2.23793">
        <ele>150</ele>
        <time>2018-11-29T09:47:34 01:00</time>
      </trkpt>
      <trkpt lat="48.79504" lon="2.23807">
        <ele>150</ele>
        <time>2018-11-29T09:47:43 01:00</time>
      </trkpt>
      <trkpt lat="48.795" lon="2.23819">
        <ele>152</ele>
        <time>2018-11-29T09:47:54 01:00</time>
      </trkpt>
      <trkpt lat="48.79494" lon="2.23832">
        <ele>152</ele>
        <time>2018-11-29T09:48:05 01:00</time>
      </trkpt>
      <trkpt lat="48.79491" lon="2.23846">
        <ele>154</ele>
        <time>2018-11-29T09:48:13 01:00</time>
      </trkpt>
      <trkpt lat="48.79488" lon="2.23858">
        <ele>160</ele>
        <time>2018-11-29T09:48:22 01:00</time>
      </trkpt>
      <trkpt lat="48.79481" lon="2.23869">
        <ele>160</ele>
        <time>2018-11-29T09:48:31 01:00</time>
      </trkpt>
      <trkpt lat="48.79473" lon="2.23876">
        <ele>157</ele>
        <time>2018-11-29T09:48:40 01:00</time>
      </trkpt>
      <trkpt lat="48.79467" lon="2.23885">
        <ele>156</ele>
        <time>2018-11-29T09:48:49 01:00</time>
      </trkpt>
      <trkpt lat="48.79463" lon="2.23899">
        <ele>158</ele>
        <time>2018-11-29T09:48:59 01:00</time>
      </trkpt>
      <trkpt lat="48.79454" lon="2.23901">
        <ele>158</ele>
        <time>2018-11-29T09:50:57 01:00</time>
      </trkpt>
      <trkpt lat="48.79445" lon="2.23896">
        <ele>158</ele>
        <time>2018-11-29T09:51:07 01:00</time>
      </trkpt>
      <trkpt lat="48.79436" lon="2.23901">
        <ele>159</ele>
        <time>2018-11-29T09:51:17 01:00</time>
      </trkpt>
      <trkpt lat="48.79427" lon="2.23905">
        <ele>161</ele>
        <time>2018-11-29T09:51:26 01:00</time>
      </trkpt>
      <trkpt lat="48.79418" lon="2.23911">
        <ele>162</ele>
        <time>2018-11-29T09:51:35 01:00</time>
      </trkpt>
      <trkpt lat="48.79409" lon="2.23914">
        <ele>162</ele>
        <time>2018-11-29T09:51:44 01:00</time>
      </trkpt>
      <trkpt lat="48.794" lon="2.23917">
        <ele>161</ele>
        <time>2018-11-29T09:51:54 01:00</time>
      </trkpt>
      <trkpt lat="48.79391" lon="2.23915">
        <ele>161</ele>
        <time>2018-11-29T09:52:36 01:00</time>
      </trkpt>
      <trkpt lat="48.79382" lon="2.23915">
        <ele>157</ele>
        <time>2018-11-29T09:52:47 01:00</time>
      </trkpt>
      <trkpt lat="48.79373" lon="2.23919">
        <ele>158</ele>
        <time>2018-11-29T09:52:58 01:00</time>
      </trkpt>
      <trkpt lat="48.79364" lon="2.23923">
        <ele>161</ele>
        <time>2018-11-29T09:53:06 01:00</time>
      </trkpt>
      <trkpt lat="48.79356" lon="2.23932">
        <ele>162</ele>
        <time>2018-11-29T09:53:13 01:00</time>
      </trkpt>
      <trkpt lat="48.7935" lon="2.23943">
        <ele>161</ele>
        <time>2018-11-29T09:53:20 01:00</time>
      </trkpt>
      <trkpt lat="48.79343" lon="2.23953">
        <ele>163</ele>
        <time>2018-11-29T09:53:36 01:00</time>
      </trkpt>
      <trkpt lat="48.79336" lon="2.23963">
        <ele>162</ele>
        <time>2018-11-29T09:53:46 01:00</time>
      </trkpt>
      <trkpt lat="48.79333" lon="2.23977">
        <ele>162</ele>
        <time>2018-11-29T09:53:54 01:00</time>
      </trkpt>
      <trkpt lat="48.79331" lon="2.23992">
        <ele>164</ele>
        <time>2018-11-29T09:54:03 01:00</time>
      </trkpt>
      <trkpt lat="48.7933" lon="2.24006">
        <ele>165</ele>
        <time>2018-11-29T09:54:10 01:00</time>
      </trkpt>
      <trkpt lat="48.79331" lon="2.24021">
        <ele>169</ele>
        <time>2018-11-29T09:54:19 01:00</time>
      </trkpt>
      <trkpt lat="48.79337" lon="2.24033">
        <ele>170</ele>
        <time>2018-11-29T09:54:29 01:00</time>
      </trkpt>
      <trkpt lat="48.79344" lon="2.24041">
        <ele>168</ele>
        <time>2018-11-29T09:54:38 01:00</time>
      </trkpt>
      <trkpt lat="48.79354" lon="2.2404">
        <ele>163</ele>
        <time>2018-11-29T09:54:47 01:00</time>
      </trkpt>
      <trkpt lat="48.79363" lon="2.24041">
        <ele>162</ele>
        <time>2018-11-29T09:54:55 01:00</time>
      </trkpt>
      <trkpt lat="48.79372" lon="2.24037">
        <ele>159</ele>
        <time>2018-11-29T09:55:05 01:00</time>
      </trkpt>
      <trkpt lat="48.79382" lon="2.24039">
        <ele>163</ele>
        <time>2018-11-29T09:55:15 01:00</time>
      </trkpt>
      <trkpt lat="48.79391" lon="2.24033">
        <ele>165</ele>
        <time>2018-11-29T09:55:24 01:00</time>
      </trkpt>
      <trkpt lat="48.79398" lon="2.24023">
        <ele>165</ele>
        <time>2018-11-29T09:55:34 01:00</time>
      </trkpt>
      <trkpt lat="48.79406" lon="2.24014">
        <ele>168</ele>
        <time>2018-11-29T09:55:46 01:00</time>
      </trkpt>
      <trkpt lat="48.79415" lon="2.2401">
        <ele>167</ele>
        <time>2018-11-29T09:55:55 01:00</time>
      </trkpt>
      <trkpt lat="48.79425" lon="2.24011">
        <ele>167</ele>
        <time>2018-11-29T09:56:05 01:00</time>
      </trkpt>
      <trkpt lat="48.79434" lon="2.24014">
        <ele>168</ele>
        <time>2018-11-29T09:56:15 01:00</time>
      </trkpt>
      <trkpt lat="48.79441" lon="2.24023">
        <ele>164</ele>
        <time>2018-11-29T09:56:26 01:00</time>
      </trkpt>
      <trkpt lat="48.79449" lon="2.24031">
        <ele>168</ele>
        <time>2018-11-29T09:56:41 01:00</time>
      </trkpt>
      <trkpt lat="48.79455" lon="2.24041">
        <ele>170</ele>
        <time>2018-11-29T09:56:53 01:00</time>
      </trkpt>
      <trkpt lat="48.7946" lon="2.24052">
        <ele>170</ele>
        <time>2018-11-29T09:57:01 01:00</time>
      </trkpt>
      <trkpt lat="48.79462" lon="2.24066">
        <ele>175</ele>
        <time>2018-11-29T09:57:12 01:00</time>
      </trkpt>
      <trkpt lat="48.79466" lon="2.24079">
        <ele>174</ele>
        <time>2018-11-29T09:57:25 01:00</time>
      </trkpt>
      <trkpt lat="48.79473" lon="2.2409">
        <ele>172</ele>
        <time>2018-11-29T09:57:36 01:00</time>
      </trkpt>
      <trkpt lat="48.79472" lon="2.24104">
        <ele>170</ele>
        <time>2018-11-29T09:57:49 01:00</time>
      </trkpt>
      <trkpt lat="48.79476" lon="2.24117">
        <ele>170</ele>
        <time>2018-11-29T09:57:59 01:00</time>
      </trkpt>
      <trkpt lat="48.79478" lon="2.24131">
        <ele>170</ele>
        <time>2018-11-29T09:58:10 01:00</time>
      </trkpt>
      <trkpt lat="48.79478" lon="2.24145">
        <ele>170</ele>
        <time>2018-11-29T09:58:26 01:00</time>
      </trkpt>
      <trkpt lat="48.79476" lon="2.24159">
        <ele>173</ele>
        <time>2018-11-29T09:58:39 01:00</time>
      </trkpt>
      <trkpt lat="48.79477" lon="2.24172">
        <ele>173</ele>
        <time>2018-11-29T09:58:51 01:00</time>
      </trkpt>
      <trkpt lat="48.79473" lon="2.24185">
        <ele>173</ele>
        <time>2018-11-29T09:59:01 01:00</time>
      </trkpt>
      <trkpt lat="48.79468" lon="2.24197">
        <ele>173</ele>
        <time>2018-11-29T09:59:11 01:00</time>
      </trkpt>
      <trkpt lat="48.79469" lon="2.24211">
        <ele>175</ele>
        <time>2018-11-29T09:59:23 01:00</time>
      </trkpt>
      <trkpt lat="48.7947" lon="2.24224">
        <ele>175</ele>
        <time>2018-11-29T09:59:33 01:00</time>
      </trkpt>
      <trkpt lat="48.79471" lon="2.24238">
        <ele>174</ele>
        <time>2018-11-29T09:59:43 01:00</time>
      </trkpt>
      <trkpt lat="48.79473" lon="2.24252">
        <ele>179</ele>
        <time>2018-11-29T09:59:57 01:00</time>
      </trkpt>
      <trkpt lat="48.79475" lon="2.24267">
        <ele>178</ele>
        <time>2018-11-29T10:00:08 01:00</time>
      </trkpt>
      <trkpt lat="48.7948" lon="2.24279">
        <ele>177</ele>
        <time>2018-11-29T10:00:19 01:00</time>
      </trkpt>
      <trkpt lat="48.79486" lon="2.2429">
        <ele>175</ele>
        <time>2018-11-29T10:00:30 01:00</time>
      </trkpt>
      <trkpt lat="48.79495" lon="2.24292">
        <ele>174</ele>
        <time>2018-11-29T10:00:44 01:00</time>
      </trkpt>
      <trkpt lat="48.79504" lon="2.24287">
        <ele>169</ele>
        <time>2018-11-29T10:01:02 01:00</time>
      </trkpt>
      <trkpt lat="48.79509" lon="2.24276">
        <ele>169</ele>
        <time>2018-11-29T10:01:16 01:00</time>
      </trkpt>
      <trkpt lat="48.79518" lon="2.24282">
        <ele>166</ele>
        <time>2018-11-29T10:01:31 01:00</time>
      </trkpt>
      <trkpt lat="48.79525" lon="2.24289">
        <ele>164</ele>
        <time>2018-11-29T10:01:40 01:00</time>
      </trkpt>
      <trkpt lat="48.79534" lon="2.24295">
        <ele>163</ele>
        <time>2018-11-29T10:01:51 01:00</time>
      </trkpt>
      <trkpt lat="48.7954" lon="2.24306">
        <ele>165</ele>
        <time>2018-11-29T10:02:03 01:00</time>
      </trkpt>
      <trkpt lat="48.7954" lon="2.24321">
        <ele>169</ele>
        <time>2018-11-29T10:02:19 01:00</time>
      </trkpt>
      <trkpt lat="48.79537" lon="2.24335">
        <ele>169</ele>
        <time>2018-11-29T10:02:29 01:00</time>
      </trkpt>
      <trkpt lat="48.79534" lon="2.24348">
        <ele>167</ele>
        <time>2018-11-29T10:02:41 01:00</time>
      </trkpt>
      <trkpt lat="48.79532" lon="2.24362">
        <ele>171</ele>
        <time>2018-11-29T10:02:53 01:00</time>
      </trkpt>
      <trkpt lat="48.79529" lon="2.24375">
        <ele>171</ele>
        <time>2018-11-29T10:03:02 01:00</time>
      </trkpt>
      <trkpt lat="48.79529" lon="2.2439">
        <ele>172</ele>
        <time>2018-11-29T10:03:11 01:00</time>
      </trkpt>
      <trkpt lat="48.79528" lon="2.24404">
        <ele>173</ele>
        <time>2018-11-29T10:03:20 01:00</time>
      </trkpt>
      <trkpt lat="48.79525" lon="2.24417">
        <ele>174</ele>
        <time>2018-11-29T10:03:30 01:00</time>
      </trkpt>
      <trkpt lat="48.7952" lon="2.24429">
        <ele>172</ele>
        <time>2018-11-29T10:03:40 01:00</time>
      </trkpt>
      <trkpt lat="48.79514" lon="2.2444">
        <ele>169</ele>
        <time>2018-11-29T10:03:55 01:00</time>
      </trkpt>
      <trkpt lat="48.79512" lon="2.24454">
        <ele>172</ele>
        <time>2018-11-29T10:04:07 01:00</time>
      </trkpt>
      <trkpt lat="48.79511" lon="2.24469">
        <ele>172</ele>
        <time>2018-11-29T10:04:22 01:00</time>
      </trkpt>
      <trkpt lat="48.79509" lon="2.24482">
        <ele>171</ele>
        <time>2018-11-29T10:04:33 01:00</time>
      </trkpt>
      <trkpt lat="48.79507" lon="2.24497">
        <ele>171</ele>
        <time>2018-11-29T10:04:44 01:00</time>
      </trkpt>
      <trkpt lat="48.79508" lon="2.2451">
        <ele>178</ele>
        <time>2018-11-29T10:04:55 01:00</time>
      </trkpt>
      <trkpt lat="48.79509" lon="2.24524">
        <ele>178</ele>
        <time>2018-11-29T10:05:10 01:00</time>
      </trkpt>
      <trkpt lat="48.79512" lon="2.24537">
        <ele>180</ele>
        <time>2018-11-29T10:05:20 01:00</time>
      </trkpt>
      <trkpt lat="48.79515" lon="2.2455">
        <ele>182</ele>
        <time>2018-11-29T10:05:33 01:00</time>
      </trkpt>
      <trkpt lat="48.79519" lon="2.24564">
        <ele>184</ele>
        <time>2018-11-29T10:05:51 01:00</time>
      </trkpt>
      <trkpt lat="48.79526" lon="2.24572">
        <ele>188</ele>
        <time>2018-11-29T10:06:03 01:00</time>
      </trkpt>
      <trkpt lat="48.7953" lon="2.24585">
        <ele>188</ele>
        <time>2018-11-29T10:06:14 01:00</time>
      </trkpt>
      <trkpt lat="48.7953" lon="2.246">
        <ele>186</ele>
        <time>2018-11-29T10:06:25 01:00</time>
      </trkpt>
      <trkpt lat="48.79532" lon="2.24614">
        <ele>187</ele>
        <time>2018-11-29T10:06:36 01:00</time>
      </trkpt>
      <trkpt lat="48.79536" lon="2.24627">
        <ele>188</ele>
        <time>2018-11-29T10:06:47 01:00</time>
      </trkpt>
      <trkpt lat="48.7954" lon="2.2464">
        <ele>189</ele>
        <time>2018-11-29T10:07:00 01:00</time>
      </trkpt>
      <trkpt lat="48.79542" lon="2.24653">
        <ele>187</ele>
        <time>2018-11-29T10:07:17 01:00</time>
      </trkpt>
      <trkpt lat="48.79545" lon="2.24667">
        <ele>189</ele>
        <time>2018-11-29T10:07:28 01:00</time>
      </trkpt>
      <trkpt lat="48.79546" lon="2.24681">
        <ele>190</ele>
        <time>2018-11-29T10:07:40 01:00</time>
      </trkpt>
      <trkpt lat="48.79551" lon="2.24694">
        <ele>191</ele>
        <time>2018-11-29T10:07:52 01:00</time>
      </trkpt>
      <trkpt lat="48.79553" lon="2.24707">
        <ele>194</ele>
        <time>2018-11-29T10:08:02 01:00</time>
      </trkpt>
      <trkpt lat="48.79553" lon="2.24721">
        <ele>192</ele>
        <time>2018-11-29T10:08:11 01:00</time>
      </trkpt>
      <trkpt lat="48.79556" lon="2.24734">
        <ele>193</ele>
        <time>2018-11-29T10:08:21 01:00</time>
      </trkpt>
      <trkpt lat="48.79559" lon="2.24748">
        <ele>192</ele>
        <time>2018-11-29T10:08:31 01:00</time>
      </trkpt>
      <trkpt lat="48.79556" lon="2.24762">
        <ele>190</ele>
        <time>2018-11-29T10:09:07 01:00</time>
      </trkpt>
      <trkpt lat="48.79556" lon="2.24775">
        <ele>188</ele>
        <time>2018-11-29T10:09:18 01:00</time>
      </trkpt>
      <trkpt lat="48.79559" lon="2.24789">
        <ele>196</ele>
        <time>2018-11-29T10:11:22 01:00</time>
      </trkpt>
      <trkpt lat="48.79559" lon="2.24803">
        <ele>197</ele>
        <time>2018-11-29T10:11:30 01:00</time>
      </trkpt>
      <trkpt lat="48.7956" lon="2.24817">
        <ele>197</ele>
        <time>2018-11-29T10:11:40 01:00</time>
      </trkpt>
      <trkpt lat="48.79558" lon="2.24831">
        <ele>194</ele>
        <time>2018-11-29T10:11:53 01:00</time>
      </trkpt>
      <trkpt lat="48.79557" lon="2.24845">
        <ele>195</ele>
        <time>2018-11-29T10:12:00 01:00</time>
      </trkpt>
      <trkpt lat="48.79556" lon="2.24859">
        <ele>196</ele>
        <time>2018-11-29T10:12:09 01:00</time>
      </trkpt>
      <trkpt lat="48.79557" lon="2.24873">
        <ele>196</ele>
        <time>2018-11-29T10:12:18 01:00</time>
      </trkpt>
      <trkpt lat="48.79564" lon="2.24882">
        <ele>202</ele>
        <time>2018-11-29T10:12:35 01:00</time>
      </trkpt>
      <trkpt lat="48.79556" lon="2.24887">
        <ele>199</ele>
        <time>2018-11-29T10:12:47 01:00</time>
      </trkpt>
      <trkpt lat="48.7956" lon="2.24899">
        <ele>207</ele>
        <time>2018-11-29T10:13:01 01:00</time>
      </trkpt>
      <trkpt lat="48.79568" lon="2.24905">
        <ele>205</ele>
        <time>2018-11-29T10:13:11 01:00</time>
      </trkpt>
      <trkpt lat="48.79575" lon="2.24915">
        <ele>207</ele>
        <time>2018-11-29T10:13:21 01:00</time>
      </trkpt>
      <trkpt lat="48.79583" lon="2.24925">
        <ele>207</ele>
        <time>2018-11-29T10:13:32 01:00</time>
      </trkpt>
      <trkpt lat="48.79592" lon="2.24933">
        <ele>208</ele>
        <time>2018-11-29T10:13:40 01:00</time>
      </trkpt>
      <trkpt lat="48.79601" lon="2.24928">
        <ele>208</ele>
        <time>2018-11-29T10:13:44 01:00</time>
      </trkpt>
      <trkpt lat="48.7961" lon="2.24926">
        <ele>200</ele>
        <time>2018-11-29T10:14:24 01:00</time>
      </trkpt>
      <trkpt lat="48.79618" lon="2.24932">
        <ele>211</ele>
        <time>2018-11-29T10:24:54 01:00</time>
      </trkpt>
      <trkpt lat="48.79625" lon="2.24942">
        <ele>212</ele>
        <time>2018-11-29T10:25:05 01:00</time>
      </trkpt>
      <trkpt lat="48.7963" lon="2.24955">
        <ele>216</ele>
        <time>2018-11-29T10:25:14 01:00</time>
      </trkpt>
      <trkpt lat="48.79637" lon="2.24965">
        <ele>217</ele>
        <time>2018-11-29T10:25:21 01:00</time>
      </trkpt>
      <trkpt lat="48.79645" lon="2.24973">
        <ele>218</ele>
        <time>2018-11-29T10:25:33 01:00</time>
      </trkpt>
      <trkpt lat="48.79649" lon="2.24986">
        <ele>216</ele>
        <time>2018-11-29T10:25:42 01:00</time>
      </trkpt>
      <trkpt lat="48.79654" lon="2.24999">
        <ele>213</ele>
        <time>2018-11-29T10:25:51 01:00</time>
      </trkpt>
      <trkpt lat="48.7966" lon="2.2501">
        <ele>217</ele>
        <time>2018-11-29T10:25:59 01:00</time>
      </trkpt>
      <trkpt lat="48.79663" lon="2.25024">
        <ele>215</ele>
        <time>2018-11-29T10:26:08 01:00</time>
      </trkpt>
      <trkpt lat="48.7967" lon="2.25034">
        <ele>213</ele>
        <time>2018-11-29T10:26:15 01:00</time>
      </trkpt>
      <trkpt lat="48.79678" lon="2.25042">
        <ele>209</ele>
        <time>2018-11-29T10:26:28 01:00</time>
      </trkpt>
      <trkpt lat="48.79682" lon="2.25055">
        <ele>208</ele>
        <time>2018-11-29T10:26:38 01:00</time>
      </trkpt>
      <trkpt lat="48.79689" lon="2.25065">
        <ele>205</ele>
        <time>2018-11-29T10:26:48 01:00</time>
      </trkpt>
      <trkpt lat="48.79694" lon="2.25077">
        <ele>205</ele>
        <time>2018-11-29T10:26:57 01:00</time>
      </trkpt>
      <trkpt lat="48.79701" lon="2.25086">
        <ele>205</ele>
        <time>2018-11-29T10:27:03 01:00</time>
      </trkpt>
      <trkpt lat="48.79706" lon="2.25099">
        <ele>205</ele>
        <time>2018-11-29T10:27:13 01:00</time>
      </trkpt>
      <trkpt lat="48.79712" lon="2.2511">
        <ele>205</ele>
        <time>2018-11-29T10:27:19 01:00</time>
      </trkpt>
      <trkpt lat="48.79717" lon="2.25122">
        <ele>203</ele>
        <time>2018-11-29T10:27:26 01:00</time>
      </trkpt>
      <trkpt lat="48.79723" lon="2.25133">
        <ele>202</ele>
        <time>2018-11-29T10:27:34 01:00</time>
      </trkpt>
      <trkpt lat="48.79728" lon="2.25145">
        <ele>201</ele>
        <time>2018-11-29T10:27:41 01:00</time>
      </trkpt>
      <trkpt lat="48.79734" lon="2.25156">
        <ele>202</ele>
        <time>2018-11-29T10:27:50 01:00</time>
      </trkpt>
      <trkpt lat="48.79739" lon="2.25168">
        <ele>202</ele>
        <time>2018-11-29T10:27:59 01:00</time>
      </trkpt>
      <trkpt lat="48.79745" lon="2.2518">
        <ele>207</ele>
        <time>2018-11-29T10:28:09 01:00</time>
      </trkpt>
      <trkpt lat="48.79752" lon="2.25188">
        <ele>210</ele>
        <time>2018-11-29T10:28:15 01:00</time>
      </trkpt>
      <trkpt lat="48.7976" lon="2.25197">
        <ele>210</ele>
        <time>2018-11-29T10:28:21 01:00</time>
      </trkpt>
      <trkpt lat="48.79769" lon="2.25206">
        <ele>211</ele>
        <time>2018-11-29T10:28:28 01:00</time>
      </trkpt>
      <trkpt lat="48.79777" lon="2.25213">
        <ele>208</ele>
        <time>2018-11-29T10:28:35 01:00</time>
      </trkpt>
      <trkpt lat="48.79784" lon="2.25221">
        <ele>212</ele>
        <time>2018-11-29T10:28:43 01:00</time>
      </trkpt>
      <trkpt lat="48.79791" lon="2.25232">
        <ele>210</ele>
        <time>2018-11-29T10:28:52 01:00</time>
      </trkpt>
      <trkpt lat="48.79782" lon="2.25231">
        <ele>205</ele>
        <time>2018-11-29T10:29:55 01:00</time>
      </trkpt>
      <trkpt lat="48.79776" lon="2.25242">
        <ele>206</ele>
        <time>2018-11-29T10:30:08 01:00</time>
      </trkpt>
      <trkpt lat="48.79773" lon="2.25255">
        <ele>203</ele>
        <time>2018-11-29T10:30:18 01:00</time>
      </trkpt>
      <trkpt lat="48.79766" lon="2.25265">
        <ele>205</ele>
        <time>2018-11-29T10:30:27 01:00</time>
      </trkpt>
      <trkpt lat="48.79759" lon="2.25275">
        <ele>203</ele>
        <time>2018-11-29T10:30:36 01:00</time>
      </trkpt>
      <trkpt lat="48.79752" lon="2.25286">
        <ele>202</ele>
        <time>2018-11-29T10:30:44 01:00</time>
      </trkpt>
      <trkpt lat="48.79746" lon="2.25297">
        <ele>204</ele>
        <time>2018-11-29T10:31:09 01:00</time>
      </trkpt>
      <trkpt lat="48.79738" lon="2.25304">
        <ele>207</ele>
        <time>2018-11-29T10:31:35 01:00</time>
      </trkpt>
      <trkpt lat="48.79732" lon="2.25314">
        <ele>208</ele>
        <time>2018-11-29T10:31:46 01:00</time>
      </trkpt>
      <trkpt lat="48.79724" lon="2.25323">
        <ele>208</ele>
        <time>2018-11-29T10:31:59 01:00</time>
      </trkpt>
      <trkpt lat="48.79718" lon="2.25334">
        <ele>209</ele>
        <time>2018-11-29T10:32:11 01:00</time>
      </trkpt>
      <trkpt lat="48.79712" lon="2.25346">
        <ele>208</ele>
        <time>2018-11-29T10:32:21 01:00</time>
      </trkpt>
      <trkpt lat="48.79705" lon="2.25355">
        <ele>211</ele>
        <time>2018-11-29T10:32:29 01:00</time>
      </trkpt>
      <trkpt lat="48.79698" lon="2.25365">
        <ele>210</ele>
        <time>2018-11-29T10:32:37 01:00</time>
      </trkpt>
      <trkpt lat="48.79692" lon="2.25376">
        <ele>210</ele>
        <time>2018-11-29T10:32:45 01:00</time>
      </trkpt>
      <trkpt lat="48.79685" lon="2.25387">
        <ele>212</ele>
        <time>2018-11-29T10:32:53 01:00</time>
      </trkpt>
      <trkpt lat="48.79677" lon="2.25397">
        <ele>211</ele>
        <time>2018-11-29T10:33:01 01:00</time>
      </trkpt>
      <trkpt lat="48.79671" lon="2.25407">
        <ele>211</ele>
        <time>2018-11-29T10:33:10 01:00</time>
      </trkpt>
      <trkpt lat="48.79664" lon="2.25418">
        <ele>211</ele>
        <time>2018-11-29T10:33:19 01:00</time>
      </trkpt>
      <trkpt lat="48.79657" lon="2.25429">
        <ele>211</ele>
        <time>2018-11-29T10:33:26 01:00</time>
      </trkpt>
      <trkpt lat="48.79651" lon="2.25439">
        <ele>212</ele>
        <time>2018-11-29T10:33:38 01:00</time>
      </trkpt>
      <trkpt lat="48.79644" lon="2.25447">
        <ele>210</ele>
        <time>2018-11-29T10:33:47 01:00</time>
      </trkpt>
      <trkpt lat="48.79639" lon="2.25459">
        <ele>210</ele>
        <time>2018-11-29T10:33:56 01:00</time>
      </trkpt>
      <trkpt lat="48.79632" lon="2.25469">
        <ele>210</ele>
        <time>2018-11-29T10:34:05 01:00</time>
      </trkpt>
      <trkpt lat="48.79626" lon="2.25479">
        <ele>209</ele>
        <time>2018-11-29T10:34:14 01:00</time>
      </trkpt>
      <trkpt lat="48.79621" lon="2.25491">
        <ele>211</ele>
        <time>2018-11-29T10:34:36 01:00</time>
      </trkpt>
      <trkpt lat="48.79614" lon="2.25501">
        <ele>208</ele>
        <time>2018-11-29T10:34:48 01:00</time>
      </trkpt>
      <trkpt lat="48.79609" lon="2.25514">
        <ele>206</ele>
        <time>2018-11-29T10:34:57 01:00</time>
      </trkpt>
      <trkpt lat="48.79604" lon="2.25526">
        <ele>204</ele>
        <time>2018-11-29T10:35:07 01:00</time>
      </trkpt>
      <trkpt lat="48.79599" lon="2.25537">
        <ele>203</ele>
        <time>2018-11-29T10:35:16 01:00</time>
      </trkpt>
      <trkpt lat="48.79593" lon="2.25549">
        <ele>205</ele>
        <time>2018-11-29T10:35:24 01:00</time>
      </trkpt>
      <trkpt lat="48.79587" lon="2.2556">
        <ele>206</ele>
        <time>2018-11-29T10:35:31 01:00</time>
      </trkpt>
      <trkpt lat="48.79581" lon="2.25571">
        <ele>208</ele>
        <time>2018-11-29T10:35:39 01:00</time>
      </trkpt>
      <trkpt lat="48.79575" lon="2.25583">
        <ele>207</ele>
        <time>2018-11-29T10:35:50 01:00</time>
      </trkpt>
      <trkpt lat="48.79569" lon="2.25593">
        <ele>207</ele>
        <time>2018-11-29T10:35:59 01:00</time>
      </trkpt>
      <trkpt lat="48.79563" lon="2.25602">
        <ele>206</ele>
        <time>2018-11-29T10:36:09 01:00</time>
      </trkpt>
      <trkpt lat="48.79556" lon="2.25613">
        <ele>205</ele>
        <time>2018-11-29T10:36:20 01:00</time>
      </trkpt>
      <trkpt lat="48.79549" lon="2.25625">
        <ele>204</ele>
        <time>2018-11-29T10:36:30 01:00</time>
      </trkpt>
      <trkpt lat="48.79544" lon="2.25637">
        <ele>203</ele>
        <time>2018-11-29T10:36:38 01:00</time>
      </trkpt>
      <trkpt lat="48.79538" lon="2.25649">
        <ele>202</ele>
        <time>2018-11-29T10:36:46 01:00</time>
      </trkpt>
      <trkpt lat="48.79532" lon="2.2566">
        <ele>201</ele>
        <time>2018-11-29T10:36:56 01:00</time>
      </trkpt>
      <trkpt lat="48.79526" lon="2.25672">
        <ele>201</ele>
        <time>2018-11-29T10:37:04 01:00</time>
      </trkpt>
      <trkpt lat="48.79522" lon="2.25684">
        <ele>200</ele>
        <time>2018-11-29T10:37:12 01:00</time>
      </trkpt>
      <trkpt lat="48.79515" lon="2.25694">
        <ele>202</ele>
        <time>2018-11-29T10:37:24 01:00</time>
      </trkpt>
      <trkpt lat="48.79509" lon="2.25705">
        <ele>201</ele>
        <time>2018-11-29T10:37:31 01:00</time>
      </trkpt>
      <trkpt lat="48.79504" lon="2.25717">
        <ele>204</ele>
        <time>2018-11-29T10:37:38 01:00</time>
      </trkpt>
      <trkpt lat="48.79501" lon="2.25732">
        <ele>203</ele>
        <time>2018-11-29T10:37:47 01:00</time>
      </trkpt>
      <trkpt lat="48.795" lon="2.25747">
        <ele>200</ele>
        <time>2018-11-29T10:37:57 01:00</time>
      </trkpt>
      <trkpt lat="48.79501" lon="2.2576">
        <ele>194</ele>
        <time>2018-11-29T10:38:16 01:00</time>
      </trkpt>
      <trkpt lat="48.79501" lon="2.25775">
        <ele>193</ele>
        <time>2018-11-29T10:38:28 01:00</time>
      </trkpt>
      <trkpt lat="48.79497" lon="2.25793">
        <ele>195</ele>
        <time>2018-11-29T10:38:32 01:00</time>
      </trkpt>
      <trkpt lat="48.79495" lon="2.25807">
        <ele>198</ele>
        <time>2018-11-29T10:38:39 01:00</time>
      </trkpt>
      <trkpt lat="48.79493" lon="2.25821">
        <ele>200</ele>
        <time>2018-11-29T10:38:55 01:00</time>
      </trkpt>
      <trkpt lat="48.79501" lon="2.25827">
        <ele>197</ele>
        <time>2018-11-29T10:39:06 01:00</time>
      </trkpt>
      <trkpt lat="48.79507" lon="2.2584">
        <ele>199</ele>
        <time>2018-11-29T10:39:14 01:00</time>
      </trkpt>
      <trkpt lat="48.79509" lon="2.25853">
        <ele>201</ele>
        <time>2018-11-29T10:39:24 01:00</time>
      </trkpt>
      <trkpt lat="48.79509" lon="2.25868">
        <ele>199</ele>
        <time>2018-11-29T10:39:35 01:00</time>
      </trkpt>
      <trkpt lat="48.79506" lon="2.25881">
        <ele>202</ele>
        <time>2018-11-29T10:39:42 01:00</time>
      </trkpt>
      <trkpt lat="48.79509" lon="2.25895">
        <ele>206</ele>
        <time>2018-11-29T10:39:50 01:00</time>
      </trkpt>
      <trkpt lat="48.79512" lon="2.25909">
        <ele>205</ele>
        <time>2018-11-29T10:39:58 01:00</time>
      </trkpt>
      <trkpt lat="48.79514" lon="2.25923">
        <ele>202</ele>
        <time>2018-11-29T10:40:07 01:00</time>
      </trkpt>
      <trkpt lat="48.79516" lon="2.25937">
        <ele>205</ele>
        <time>2018-11-29T10:40:18 01:00</time>
      </trkpt>
      <trkpt lat="48.79518" lon="2.25952">
        <ele>206</ele>
        <time>2018-11-29T10:40:26 01:00</time>
      </trkpt>
      <trkpt lat="48.79521" lon="2.25965">
        <ele>206</ele>
        <time>2018-11-29T10:40:37 01:00</time>
      </trkpt>
      <trkpt lat="48.79524" lon="2.25979">
        <ele>206</ele>
        <time>2018-11-29T10:40:46 01:00</time>
      </trkpt>
      <trkpt lat="48.7952" lon="2.25991">
        <ele>207</ele>
        <time>2018-11-29T10:40:52 01:00</time>
      </trkpt>
      <trkpt lat="48.79522" lon="2.26005">
        <ele>207</ele>
        <time>2018-11-29T10:41:01 01:00</time>
      </trkpt>
      <trkpt lat="48.79518" lon="2.26017">
        <ele>206</ele>
        <time>2018-11-29T10:41:09 01:00</time>
      </trkpt>
      <trkpt lat="48.79517" lon="2.26032">
        <ele>205</ele>
        <time>2018-11-29T10:41:18 01:00</time>
      </trkpt>
      <trkpt lat="48.79513" lon="2.26046">
        <ele>204</ele>
        <time>2018-11-29T10:41:27 01:00</time>
      </trkpt>
      <trkpt lat="48.7951" lon="2.2606">
        <ele>200</ele>
        <time>2018-11-29T10:41:43 01:00</time>
      </trkpt>
      <trkpt lat="48.79505" lon="2.26073">
        <ele>201</ele>
        <time>2018-11-29T10:41:50 01:00</time>
      </trkpt>
      <trkpt lat="48.79504" lon="2.26088">
        <ele>203</ele>
        <time>2018-11-29T10:42:02 01:00</time>
      </trkpt>
      <trkpt lat="48.795" lon="2.26102">
        <ele>203</ele>
        <time>2018-11-29T10:42:13 01:00</time>
      </trkpt>
      <trkpt lat="48.79497" lon="2.26115">
        <ele>203</ele>
        <time>2018-11-29T10:42:21 01:00</time>
      </trkpt>
      <trkpt lat="48.79493" lon="2.26128">
        <ele>204</ele>
        <time>2018-11-29T10:42:31 01:00</time>
      </trkpt>
      <trkpt lat="48.79503" lon="2.26127">
        <ele>206</ele>
        <time>2018-11-29T10:42:52 01:00</time>
      </trkpt>
      <trkpt lat="48.79512" lon="2.26131">
        <ele>210</ele>
        <time>2018-11-29T10:43:53 01:00</time>
      </trkpt>
      <trkpt lat="48.79521" lon="2.26128">
        <ele>212</ele>
        <time>2018-11-29T10:44:18 01:00</time>
      </trkpt>
      <trkpt lat="48.7953" lon="2.26127">
        <ele>211</ele>
        <time>2018-11-29T10:44:30 01:00</time>
      </trkpt>
      <trkpt lat="48.79539" lon="2.26126">
        <ele>206</ele>
        <time>2018-11-29T10:44:46 01:00</time>
      </trkpt>
      <trkpt lat="48.79548" lon="2.26122">
        <ele>203</ele>
        <time>2018-11-29T10:45:10 01:00</time>
      </trkpt>
      <trkpt lat="48.79557" lon="2.26117">
        <ele>202</ele>
        <time>2018-11-29T10:45:20 01:00</time>
      </trkpt>
      <trkpt lat="48.79557" lon="2.26103">
        <ele>203</ele>
        <time>2018-11-29T10:45:53 01:00</time>
      </trkpt>
      <trkpt lat="48.79559" lon="2.26089">
        <ele>203</ele>
        <time>2018-11-29T10:46:08 01:00</time>
      </trkpt>
      <trkpt lat="48.79559" lon="2.26074">
        <ele>209</ele>
        <time>2018-11-29T10:46:21 01:00</time>
      </trkpt>
      <trkpt lat="48.79563" lon="2.26061">
        <ele>211</ele>
        <time>2018-11-29T10:46:32 01:00</time>
      </trkpt>
      <trkpt lat="48.79567" lon="2.26048">
        <ele>210</ele>
        <time>2018-11-29T10:46:41 01:00</time>
      </trkpt>
      <trkpt lat="48.79572" lon="2.26036">
        <ele>209</ele>
        <time>2018-11-29T10:46:51 01:00</time>
      </trkpt>
      <trkpt lat="48.79581" lon="2.26037">
        <ele>207</ele>
        <time>2018-11-29T10:47:01 01:00</time>
      </trkpt>
      <trkpt lat="48.79579" lon="2.26023">
        <ele>209</ele>
        <time>2018-11-29T10:47:51 01:00</time>
      </trkpt>
      <trkpt lat="48.7958" lon="2.26008">
        <ele>207</ele>
        <time>2018-11-29T10:48:01 01:00</time>
      </trkpt>
      <trkpt lat="48.79582" lon="2.25993">
        <ele>204</ele>
        <time>2018-11-29T10:48:10 01:00</time>
      </trkpt>
      <trkpt lat="48.79579" lon="2.25979">
        <ele>204</ele>
        <time>2018-11-29T10:48:22 01:00</time>
      </trkpt>
      <trkpt lat="48.79576" lon="2.25967">
        <ele>201</ele>
        <time>2018-11-29T10:48:32 01:00</time>
      </trkpt>
      <trkpt lat="48.7957" lon="2.25955">
        <ele>198</ele>
        <time>2018-11-29T10:48:41 01:00</time>
      </trkpt>
      <trkpt lat="48.79566" lon="2.25943">
        <ele>199</ele>
        <time>2018-11-29T10:48:46 01:00</time>
      </trkpt>
      <trkpt lat="48.7956" lon="2.25932">
        <ele>200</ele>
        <time>2018-11-29T10:48:52 01:00</time>
      </trkpt>
      <trkpt lat="48.79555" lon="2.25919">
        <ele>203</ele>
        <time>2018-11-29T10:48:59 01:00</time>
      </trkpt>
      <trkpt lat="48.79553" lon="2.25905">
        <ele>204</ele>
        <time>2018-11-29T10:49:16 01:00</time>
      </trkpt>
      <trkpt lat="48.7955" lon="2.25892">
        <ele>206</ele>
        <time>2018-11-29T10:49:24 01:00</time>
      </trkpt>
      <trkpt lat="48.79552" lon="2.25878">
        <ele>206</ele>
        <time>2018-11-29T10:49:33 01:00</time>
      </trkpt>
      <trkpt lat="48.79555" lon="2.25864">
        <ele>204</ele>
        <time>2018-11-29T10:49:42 01:00</time>
      </trkpt>
      <trkpt lat="48.79559" lon="2.25851">
        <ele>204</ele>
        <time>2018-11-29T10:49:54 01:00</time>
      </trkpt>
      <trkpt lat="48.79561" lon="2.25837">
        <ele>208</ele>
        <time>2018-11-29T10:50:18 01:00</time>
      </trkpt>
      <trkpt lat="48.79562" lon="2.25824">
        <ele>208</ele>
        <time>2018-11-29T10:50:27 01:00</time>
      </trkpt>
      <trkpt lat="48.79563" lon="2.25809">
        <ele>207</ele>
        <time>2018-11-29T10:50:35 01:00</time>
      </trkpt>
      <trkpt lat="48.79566" lon="2.25796">
        <ele>207</ele>
        <time>2018-11-29T10:50:43 01:00</time>
      </trkpt>
      <trkpt lat="48.79568" lon="2.25782">
        <ele>207</ele>
        <time>2018-11-29T10:50:52 01:00</time>
      </trkpt>
      <trkpt lat="48.79571" lon="2.25769">
        <ele>206</ele>
        <time>2018-11-29T10:51:01 01:00</time>
      </trkpt>
      <trkpt lat="48.79577" lon="2.25759">
        <ele>201</ele>
        <time>2018-11-29T10:52:00 01:00</time>
      </trkpt>
      <trkpt lat="48.79584" lon="2.25749">
        <ele>203</ele>
        <time>2018-11-29T10:52:10 01:00</time>
      </trkpt>
      <trkpt lat="48.79586" lon="2.25735">
        <ele>205</ele>
        <time>2018-11-29T10:52:19 01:00</time>
      </trkpt>
      <trkpt lat="48.7959" lon="2.25723">
        <ele>206</ele>
        <time>2018-11-29T10:52:30 01:00</time>
      </trkpt>
      <trkpt lat="48.79597" lon="2.25714">
        <ele>207</ele>
        <time>2018-11-29T10:52:41 01:00</time>
      </trkpt>
      <trkpt lat="48.79605" lon="2.25707">
        <ele>204</ele>
        <time>2018-11-29T10:52:50 01:00</time>
      </trkpt>
      <trkpt lat="48.79614" lon="2.257">
        <ele>206</ele>
        <time>2018-11-29T10:53:02 01:00</time>
      </trkpt>
      <trkpt lat="48.79623" lon="2.25696">
        <ele>208</ele>
        <time>2018-11-29T10:53:10 01:00</time>
      </trkpt>
      <trkpt lat="48.79633" lon="2.25696">
        <ele>211</ele>
        <time>2018-11-29T10:53:19 01:00</time>
      </trkpt>
      <trkpt lat="48.79642" lon="2.25693">
        <ele>209</ele>
        <time>2018-11-29T10:53:32 01:00</time>
      </trkpt>
      <trkpt lat="48.79648" lon="2.25682">
        <ele>209</ele>
        <time>2018-11-29T10:53:45 01:00</time>
      </trkpt>
      <trkpt lat="48.79654" lon="2.25693">
        <ele>206</ele>
        <time>2018-11-29T10:54:33 01:00</time>
      </trkpt>
      <trkpt lat="48.79663" lon="2.2569">
        <ele>206</ele>
        <time>2018-11-29T10:54:40 01:00</time>
      </trkpt>
      <trkpt lat="48.79672" lon="2.25695">
        <ele>202</ele>
        <time>2018-11-29T10:54:46 01:00</time>
      </trkpt>
      <trkpt lat="48.79682" lon="2.25695">
        <ele>202</ele>
        <time>2018-11-29T10:54:53 01:00</time>
      </trkpt>
      <trkpt lat="48.79691" lon="2.2569">
        <ele>202</ele>
        <time>2018-11-29T10:55:00 01:00</time>
      </trkpt>
      <trkpt lat="48.797" lon="2.25685">
        <ele>203</ele>
        <time>2018-11-29T10:55:08 01:00</time>
      </trkpt>
      <trkpt lat="48.79709" lon="2.25683">
        <ele>206</ele>
        <time>2018-11-29T10:55:13 01:00</time>
      </trkpt>
      <trkpt lat="48.79718" lon="2.25682">
        <ele>207</ele>
        <time>2018-11-29T10:55:18 01:00</time>
      </trkpt>
      <trkpt lat="48.79729" lon="2.25683">
        <ele>207</ele>
        <time>2018-11-29T10:55:23 01:00</time>
      </trkpt>
      <trkpt lat="48.79739" lon="2.25682">
        <ele>206</ele>
        <time>2018-11-29T10:55:28 01:00</time>
      </trkpt>
      <trkpt lat="48.79749" lon="2.25677">
        <ele>206</ele>
        <time>2018-11-29T10:55:34 01:00</time>
      </trkpt>
      <trkpt lat="48.79758" lon="2.25677">
        <ele>209</ele>
        <time>2018-11-29T10:55:39 01:00</time>
      </trkpt>
      <trkpt lat="48.79765" lon="2.25686">
        <ele>210</ele>
        <time>2018-11-29T10:55:50 01:00</time>
      </trkpt>
      <trkpt lat="48.79773" lon="2.25693">
        <ele>208</ele>
        <time>2018-11-29T10:56:00 01:00</time>
      </trkpt>
      <trkpt lat="48.79782" lon="2.257">
        <ele>207</ele>
        <time>2018-11-29T10:56:21 01:00</time>
      </trkpt>
      <trkpt lat="48.79789" lon="2.25709">
        <ele>205</ele>
        <time>2018-11-29T10:56:30 01:00</time>
      </trkpt>
      <trkpt lat="48.79794" lon="2.2572">
        <ele>204</ele>
        <time>2018-11-29T10:56:40 01:00</time>
      </trkpt>
      <trkpt lat="48.79799" lon="2.25733">
        <ele>200</ele>
        <time>2018-11-29T10:56:50 01:00</time>
      </trkpt>
      <trkpt lat="48.79805" lon="2.25744">
        <ele>199</ele>
        <time>2018-11-29T10:56:59 01:00</time>
      </trkpt>
      <trkpt lat="48.79811" lon="2.25755">
        <ele>201</ele>
        <time>2018-11-29T10:57:09 01:00</time>
      </trkpt>
      <trkpt lat="48.79816" lon="2.25768">
        <ele>200</ele>
        <time>2018-11-29T10:57:19 01:00</time>
      </trkpt>
      <trkpt lat="48.79822" lon="2.25778">
        <ele>198</ele>
        <time>2018-11-29T10:57:29 01:00</time>
      </trkpt>
      <trkpt lat="48.79831" lon="2.25785">
        <ele>195</ele>
        <time>2018-11-29T10:57:40 01:00</time>
      </trkpt>
      <trkpt lat="48.7984" lon="2.25786">
        <ele>192</ele>
        <time>2018-11-29T10:57:51 01:00</time>
      </trkpt>
      <trkpt lat="48.7985" lon="2.25789">
        <ele>191</ele>
        <time>2018-11-29T10:58:01 01:00</time>
      </trkpt>
      <trkpt lat="48.79857" lon="2.25797">
        <ele>192</ele>
        <time>2018-11-29T10:58:12 01:00</time>
      </trkpt>
      <trkpt lat="48.79863" lon="2.25809">
        <ele>193</ele>
        <time>2018-11-29T10:58:37 01:00</time>
      </trkpt>
      <trkpt lat="48.79869" lon="2.25821">
        <ele>192</ele>
        <time>2018-11-29T10:58:46 01:00</time>
      </trkpt>
      <trkpt lat="48.79875" lon="2.25832">
        <ele>190</ele>
        <time>2018-11-29T10:58:54 01:00</time>
      </trkpt>
      <trkpt lat="48.79879" lon="2.25844">
        <ele>186</ele>
        <time>2018-11-29T10:59:03 01:00</time>
      </trkpt>
      <trkpt lat="48.79885" lon="2.25856">
        <ele>185</ele>
        <time>2018-11-29T10:59:13 01:00</time>
      </trkpt>
      <trkpt lat="48.79889" lon="2.25869">
        <ele>175</ele>
        <time>2018-11-29T10:59:35 01:00</time>
      </trkpt>
      <trkpt lat="48.79898" lon="2.25874">
        <ele>174</ele>
        <time>2018-11-29T10:59:41 01:00</time>
      </trkpt>
      <trkpt lat="48.79901" lon="2.25889">
        <ele>174</ele>
        <time>2018-11-29T10:59:49 01:00</time>
      </trkpt>
      <trkpt lat="48.79906" lon="2.25901">
        <ele>172</ele>
        <time>2018-11-29T10:59:56 01:00</time>
      </trkpt>
      <trkpt lat="48.7991" lon="2.25915">
        <ele>172</ele>
        <time>2018-11-29T11:00:04 01:00</time>
      </trkpt>
      <trkpt lat="48.79906" lon="2.25928">
        <ele>172</ele>
        <time>2018-11-29T11:00:30 01:00</time>
      </trkpt>
      <trkpt lat="48.79914" lon="2.25935">
        <ele>175</ele>
        <time>2018-11-29T11:01:04 01:00</time>
      </trkpt>
      <trkpt lat="48.79922" lon="2.25944">
        <ele>172</ele>
        <time>2018-11-29T11:01:22 01:00</time>
      </trkpt>
      <trkpt lat="48.79927" lon="2.25956">
        <ele>168</ele>
        <time>2018-11-29T11:01:33 01:00</time>
      </trkpt>
      <trkpt lat="48.79933" lon="2.25967">
        <ele>167</ele>
        <time>2018-11-29T11:01:45 01:00</time>
      </trkpt>
      <trkpt lat="48.79937" lon="2.2598">
        <ele>167</ele>
        <time>2018-11-29T11:01:54 01:00</time>
      </trkpt>
      <trkpt lat="48.79942" lon="2.25992">
        <ele>168</ele>
        <time>2018-11-29T11:02:04 01:00</time>
      </trkpt>
      <trkpt lat="48.79946" lon="2.26005">
        <ele>168</ele>
        <time>2018-11-29T11:02:13 01:00</time>
      </trkpt>
      <trkpt lat="48.79951" lon="2.26017">
        <ele>166</ele>
        <time>2018-11-29T11:02:25 01:00</time>
      </trkpt>
      <trkpt lat="48.79958" lon="2.26024">
        <ele>164</ele>
        <time>2018-11-29T11:02:44 01:00</time>
      </trkpt>
      <trkpt lat="48.79966" lon="2.26034">
        <ele>164</ele>
        <time>2018-11-29T11:02:54 01:00</time>
      </trkpt>
      <trkpt lat="48.79974" lon="2.26041">
        <ele>165</ele>
        <time>2018-11-29T11:03:03 01:00</time>
      </trkpt>
      <trkpt lat="48.79979" lon="2.26053">
        <ele>167</ele>
        <time>2018-11-29T11:03:17 01:00</time>
      </trkpt>
      <trkpt lat="48.79986" lon="2.26062">
        <ele>167</ele>
        <time>2018-11-29T11:03:25 01:00</time>
      </trkpt>
      <trkpt lat="48.79992" lon="2.26074">
        <ele>164</ele>
        <time>2018-11-29T11:03:33 01:00</time>
      </trkpt>
      <trkpt lat="48.79999" lon="2.26083">
        <ele>164</ele>
        <time>2018-11-29T11:03:40 01:00</time>
      </trkpt>
      <trkpt lat="48.80006" lon="2.26092">
        <ele>163</ele>
        <time>2018-11-29T11:03:45 01:00</time>
      </trkpt>
      <trkpt lat="48.80014" lon="2.26098">
        <ele>164</ele>
        <time>2018-11-29T11:04:01 01:00</time>
      </trkpt>
      <trkpt lat="48.80022" lon="2.26105">
        <ele>162</ele>
        <time>2018-11-29T11:04:14 01:00</time>
      </trkpt>
      <trkpt lat="48.8003" lon="2.26115">
        <ele>159</ele>
        <time>2018-11-29T11:04:25 01:00</time>
      </trkpt>
      <trkpt lat="48.80036" lon="2.26125">
        <ele>161</ele>
        <time>2018-11-29T11:04:35 01:00</time>
      </trkpt>
      <trkpt lat="48.80044" lon="2.26133">
        <ele>165</ele>
        <time>2018-11-29T11:04:56 01:00</time>
      </trkpt>
      <trkpt lat="48.8005" lon="2.26145">
        <ele>160</ele>
        <time>2018-11-29T11:05:24 01:00</time>
      </trkpt>
      <trkpt lat="48.80054" lon="2.26156">
        <ele>158</ele>
        <time>2018-11-29T11:05:39 01:00</time>
      </trkpt>
      <trkpt lat="48.8006" lon="2.26169">
        <ele>156</ele>
        <time>2018-11-29T11:05:49 01:00</time>
      </trkpt>
      <trkpt lat="48.8007" lon="2.26174">
        <ele>157</ele>
        <time>2018-11-29T11:05:58 01:00</time>
      </trkpt>
      <trkpt lat="48.80079" lon="2.26178">
        <ele>159</ele>
        <time>2018-11-29T11:06:05 01:00</time>
      </trkpt>
      <trkpt lat="48.80086" lon="2.26186">
        <ele>159</ele>
        <time>2018-11-29T11:06:13 01:00</time>
      </trkpt>
      <trkpt lat="48.80091" lon="2.26198">
        <ele>159</ele>
        <time>2018-11-29T11:06:21 01:00</time>
      </trkpt>
      <trkpt lat="48.80089" lon="2.26211">
        <ele>159</ele>
        <time>2018-11-29T11:06:29 01:00</time>
      </trkpt>
      <trkpt lat="48.8008" lon="2.26218">
        <ele>157</ele>
        <time>2018-11-29T11:06:35 01:00</time>
      </trkpt>
      <trkpt lat="48.80072" lon="2.26226">
        <ele>158</ele>
        <time>2018-11-29T11:06:42 01:00</time>
      </trkpt>
      <trkpt lat="48.80066" lon="2.26237">
        <ele>162</ele>
        <time>2018-11-29T11:06:51 01:00</time>
      </trkpt>
      <trkpt lat="48.80058" lon="2.26245">
        <ele>160</ele>
        <time>2018-11-29T11:07:03 01:00</time>
      </trkpt>
      <trkpt lat="48.80052" lon="2.26255">
        <ele>159</ele>
        <time>2018-11-29T11:07:14 01:00</time>
      </trkpt>
      <trkpt lat="48.80048" lon="2.26269">
        <ele>157</ele>
        <time>2018-11-29T11:07:27 01:00</time>
      </trkpt>
      <trkpt lat="48.80041" lon="2.26278">
        <ele>159</ele>
        <time>2018-11-29T11:07:43 01:00</time>
      </trkpt>
      <trkpt lat="48.80038" lon="2.26291">
        <ele>155</ele>
        <time>2018-11-29T11:07:51 01:00</time>
      </trkpt>
      <trkpt lat="48.80035" lon="2.26304">
        <ele>153</ele>
        <time>2018-11-29T11:08:01 01:00</time>
      </trkpt>
      <trkpt lat="48.8004" lon="2.26317">
        <ele>151</ele>
        <time>2018-11-29T11:08:14 01:00</time>
      </trkpt>
      <trkpt lat="48.80046" lon="2.26327">
        <ele>151</ele>
        <time>2018-11-29T11:08:24 01:00</time>
      </trkpt>
      <trkpt lat="48.80053" lon="2.26337">
        <ele>150</ele>
        <time>2018-11-29T11:08:37 01:00</time>
      </trkpt>
      <trkpt lat="48.80056" lon="2.2635">
        <ele>150</ele>
        <time>2018-11-29T11:08:48 01:00</time>
      </trkpt>
      <trkpt lat="48.80065" lon="2.26356">
        <ele>154</ele>
        <time>2018-11-29T11:09:00 01:00</time>
      </trkpt>
      <trkpt lat="48.80074" lon="2.2636">
        <ele>160</ele>
        <time>2018-11-29T11:09:07 01:00</time>
      </trkpt>
      <trkpt lat="48.80083" lon="2.26366">
        <ele>166</ele>
        <time>2018-11-29T11:09:23 01:00</time>
      </trkpt>
      <trkpt lat="48.80091" lon="2.26375">
        <ele>163</ele>
        <time>2018-11-29T11:09:29 01:00</time>
      </trkpt>
      <trkpt lat="48.801" lon="2.2638">
        <ele>161</ele>
        <time>2018-11-29T11:09:36 01:00</time>
      </trkpt>
      <trkpt lat="48.80108" lon="2.26386">
        <ele>157</ele>
        <time>2018-11-29T11:09:49 01:00</time>
      </trkpt>
      <trkpt lat="48.80116" lon="2.26393">
        <ele>156</ele>
        <time>2018-11-29T11:10:00 01:00</time>
      </trkpt>
      <trkpt lat="48.80125" lon="2.26398">
        <ele>156</ele>
        <time>2018-11-29T11:10:11 01:00</time>
      </trkpt>
      <trkpt lat="48.80134" lon="2.26397">
        <ele>155</ele>
        <time>2018-11-29T11:10:21 01:00</time>
      </trkpt>
      <trkpt lat="48.80143" lon="2.26403">
        <ele>155</ele>
        <time>2018-11-29T11:10:31 01:00</time>
      </trkpt>
      <trkpt lat="48.80149" lon="2.26413">
        <ele>155</ele>
        <time>2018-11-29T11:10:50 01:00</time>
      </trkpt>
      <trkpt lat="48.80159" lon="2.26415">
        <ele>157</ele>
        <time>2018-11-29T11:10:59 01:00</time>
      </trkpt>
      <trkpt lat="48.80167" lon="2.26423">
        <ele>149</ele>
        <time>2018-11-29T11:11:12 01:00</time>
      </trkpt>
      <trkpt lat="48.80172" lon="2.26436">
        <ele>148</ele>
        <time>2018-11-29T11:11:35 01:00</time>
      </trkpt>
      <trkpt lat="48.8018" lon="2.26441">
        <ele>148</ele>
        <time>2018-11-29T11:11:47 01:00</time>
      </trkpt>
      <trkpt lat="48.80189" lon="2.26445">
        <ele>146</ele>
        <time>2018-11-29T11:12:14 01:00</time>
      </trkpt>
      <trkpt lat="48.80197" lon="2.26452">
        <ele>150</ele>
        <time>2018-11-29T11:12:25 01:00</time>
      </trkpt>
      <trkpt lat="48.80206" lon="2.26459">
        <ele>150</ele>
        <time>2018-11-29T11:12:38 01:00</time>
      </trkpt>
      <trkpt lat="48.8021" lon="2.26472">
        <ele>150</ele>
        <time>2018-11-29T11:12:49 01:00</time>
      </trkpt>
      <trkpt lat="48.80214" lon="2.26485">
        <ele>150</ele>
        <time>2018-11-29T11:13:00 01:00</time>
      </trkpt>
      <trkpt lat="48.80212" lon="2.26499">
        <ele>153</ele>
        <time>2018-11-29T11:13:11 01:00</time>
      </trkpt>
      <trkpt lat="48.80211" lon="2.26513">
        <ele>151</ele>
        <time>2018-11-29T11:13:26 01:00</time>
      </trkpt>
      <trkpt lat="48.80207" lon="2.26526">
        <ele>150</ele>
        <time>2018-11-29T11:13:35 01:00</time>
      </trkpt>
      <trkpt lat="48.80208" lon="2.2654">
        <ele>145</ele>
        <time>2018-11-29T11:13:55 01:00</time>
      </trkpt>
      <trkpt lat="48.80203" lon="2.26552">
        <ele>150</ele>
        <time>2018-11-29T11:14:04 01:00</time>
      </trkpt>
      <trkpt lat="48.80202" lon="2.26568">
        <ele>144</ele>
        <time>2018-11-29T11:14:33 01:00</time>
      </trkpt>
      <trkpt lat="48.80197" lon="2.26581">
        <ele>145</ele>
        <time>2018-11-29T11:14:39 01:00</time>
      </trkpt>
      <trkpt lat="48.80189" lon="2.26591">
        <ele>144</ele>
        <time>2018-11-29T11:14:45 01:00</time>
      </trkpt>
      <trkpt lat="48.8018" lon="2.26595">
        <ele>144</ele>
        <time>2018-11-29T11:14:54 01:00</time>
      </trkpt>
      <trkpt lat="48.80178" lon="2.26609">
        <ele>145</ele>
        <time>2018-11-29T11:15:03 01:00</time>
      </trkpt>
      <trkpt lat="48.80171" lon="2.26618">
        <ele>143</ele>
        <time>2018-11-29T11:15:16 01:00</time>
      </trkpt>
      <trkpt lat="48.80166" lon="2.26631">
        <ele>146</ele>
        <time>2018-11-29T11:15:26 01:00</time>
      </trkpt>
      <trkpt lat="48.80164" lon="2.26644">
        <ele>141</ele>
        <time>2018-11-29T11:15:33 01:00</time>
      </trkpt>
      <trkpt lat="48.80162" lon="2.26659">
        <ele>147</ele>
        <time>2018-11-29T11:15:41 01:00</time>
      </trkpt>
      <trkpt lat="48.80159" lon="2.26672">
        <ele>147</ele>
        <time>2018-11-29T11:15:49 01:00</time>
      </trkpt>
      <trkpt lat="48.80152" lon="2.26681">
        <ele>151</ele>
        <time>2018-11-29T11:15:57 01:00</time>
      </trkpt>
      <trkpt lat="48.80154" lon="2.26694">
        <ele>157</ele>
        <time>2018-11-29T11:16:39 01:00</time>
      </trkpt>
      <trkpt lat="48.80159" lon="2.26706">
        <ele>155</ele>
        <time>2018-11-29T11:17:06 01:00</time>
      </trkpt>
      <trkpt lat="48.80165" lon="2.26716">
        <ele>158</ele>
        <time>2018-11-29T11:17:33 01:00</time>
      </trkpt>
      <trkpt lat="48.80175" lon="2.26716">
        <ele>156</ele>
        <time>2018-11-29T11:17:42 01:00</time>
      </trkpt>
      <trkpt lat="48.80184" lon="2.26719">
        <ele>154</ele>
        <time>2018-11-29T11:17:52 01:00</time>
      </trkpt>
      <trkpt lat="48.8019" lon="2.26729">
        <ele>151</ele>
        <time>2018-11-29T11:18:03 01:00</time>
      </trkpt>
      <trkpt lat="48.802" lon="2.26728">
        <ele>151</ele>
        <time>2018-11-29T11:18:13 01:00</time>
      </trkpt>
      <trkpt lat="48.80209" lon="2.26731">
        <ele>153</ele>
        <time>2018-11-29T11:18:25 01:00</time>
      </trkpt>
      <trkpt lat="48.80216" lon="2.26742">
        <ele>151</ele>
        <time>2018-11-29T11:18:36 01:00</time>
      </trkpt>
      <trkpt lat="48.80217" lon="2.26755">
        <ele>151</ele>
        <time>2018-11-29T11:18:51 01:00</time>
      </trkpt>
      <trkpt lat="48.80226" lon="2.26755">
        <ele>150</ele>
        <time>2018-11-29T11:19:06 01:00</time>
      </trkpt>
      <trkpt lat="48.8023" lon="2.26741">
        <ele>152</ele>
        <time>2018-11-29T11:19:14 01:00</time>
      </trkpt>
      <trkpt lat="48.80231" lon="2.26727">
        <ele>152</ele>
        <time>2018-11-29T11:19:22 01:00</time>
      </trkpt>
      <trkpt lat="48.8024" lon="2.26724">
        <ele>152</ele>
        <time>2018-11-29T11:20:01 01:00</time>
      </trkpt>
      <trkpt lat="48.8025" lon="2.26729">
        <ele>153</ele>
        <time>2018-11-29T11:21:13 01:00</time>
      </trkpt>
      <trkpt lat="48.80257" lon="2.26737">
        <ele>150</ele>
        <time>2018-11-29T11:21:24 01:00</time>
      </trkpt>
      <trkpt lat="48.80266" lon="2.26741">
        <ele>148</ele>
        <time>2018-11-29T11:21:32 01:00</time>
      </trkpt>
      <trkpt lat="48.80276" lon="2.26744">
        <ele>148</ele>
        <time>2018-11-29T11:21:43 01:00</time>
      </trkpt>
      <trkpt lat="48.80282" lon="2.26756">
        <ele>146</ele>
        <time>2018-11-29T11:21:51 01:00</time>
      </trkpt>
      <trkpt lat="48.80279" lon="2.26769">
        <ele>142</ele>
        <time>2018-11-29T11:22:02 01:00</time>
      </trkpt>
      <trkpt lat="48.80277" lon="2.26782">
        <ele>139</ele>
        <time>2018-11-29T11:22:13 01:00</time>
      </trkpt>
      <trkpt lat="48.80281" lon="2.26795">
        <ele>140</ele>
        <time>2018-11-29T11:22:24 01:00</time>
      </trkpt>
      <trkpt lat="48.80287" lon="2.26804">
        <ele>140</ele>
        <time>2018-11-29T11:22:45 01:00</time>
      </trkpt>
      <trkpt lat="48.80297" lon="2.2681">
        <ele>144</ele>
        <time>2018-11-29T11:22:53 01:00</time>
      </trkpt>
      <trkpt lat="48.80307" lon="2.26812">
        <ele>143</ele>
        <time>2018-11-29T11:22:59 01:00</time>
      </trkpt>
      <trkpt lat="48.80317" lon="2.26816">
        <ele>145</ele>
        <time>2018-11-29T11:23:06 01:00</time>
      </trkpt>
      <trkpt lat="48.80323" lon="2.26827">
        <ele>143</ele>
        <time>2018-11-29T11:23:15 01:00</time>
      </trkpt>
      <trkpt lat="48.8033" lon="2.26836">
        <ele>141</ele>
        <time>2018-11-29T11:23:25 01:00</time>
      </trkpt>
      <trkpt lat="48.80338" lon="2.26843">
        <ele>140</ele>
        <time>2018-11-29T11:23:33 01:00</time>
      </trkpt>
      <trkpt lat="48.80348" lon="2.26846">
        <ele>138</ele>
        <time>2018-11-29T11:23:44 01:00</time>
      </trkpt>
      <trkpt lat="48.80352" lon="2.26859">
        <ele>140</ele>
        <time>2018-11-29T11:23:58 01:00</time>
      </trkpt>
      <trkpt lat="48.80354" lon="2.26873">
        <ele>139</ele>
        <time>2018-11-29T11:24:13 01:00</time>
      </trkpt>
      <trkpt lat="48.80352" lon="2.26858">
        <ele>141</ele>
        <time>2018-11-29T11:24:39 01:00</time>
      </trkpt>
      <trkpt lat="48.80352" lon="2.26872">
        <ele>142</ele>
        <time>2018-11-29T11:25:00 01:00</time>
      </trkpt>
      <trkpt lat="48.80358" lon="2.26882">
        <ele>149</ele>
        <time>2018-11-29T11:25:20 01:00</time>
      </trkpt>
      <trkpt lat="48.80362" lon="2.2687">
        <ele>149</ele>
        <time>2018-11-29T11:25:33 01:00</time>
      </trkpt>
      <trkpt lat="48.80364" lon="2.26856">
        <ele>145</ele>
        <time>2018-11-29T11:25:44 01:00</time>
      </trkpt>
      <trkpt lat="48.80365" lon="2.26841">
        <ele>143</ele>
        <time>2018-11-29T11:25:55 01:00</time>
      </trkpt>
      <trkpt lat="48.80372" lon="2.26832">
        <ele>143</ele>
        <time>2018-11-29T11:26:10 01:00</time>
      </trkpt>
      <trkpt lat="48.80377" lon="2.2682">
        <ele>144</ele>
        <time>2018-11-29T11:26:22 01:00</time>
      </trkpt>
      <trkpt lat="48.80386" lon="2.26821">
        <ele>140</ele>
        <time>2018-11-29T11:26:34 01:00</time>
      </trkpt>
      <trkpt lat="48.80395" lon="2.26827">
        <ele>139</ele>
        <time>2018-11-29T11:26:43 01:00</time>
      </trkpt>
      <trkpt lat="48.80404" lon="2.26828">
        <ele>139</ele>
        <time>2018-11-29T11:26:53 01:00</time>
      </trkpt>
      <trkpt lat="48.80412" lon="2.26834">
        <ele>137</ele>
        <time>2018-11-29T11:27:08 01:00</time>
      </trkpt>
      <trkpt lat="48.8042" lon="2.26841">
        <ele>136</ele>
        <time>2018-11-29T11:27:19 01:00</time>
      </trkpt>
      <trkpt lat="48.80424" lon="2.26855">
        <ele>137</ele>
        <time>2018-11-29T11:27:31 01:00</time>
      </trkpt>
      <trkpt lat="48.80431" lon="2.26865">
        <ele>137</ele>
        <time>2018-11-29T11:27:40 01:00</time>
      </trkpt>
      <trkpt lat="48.8044" lon="2.26869">
        <ele>136</ele>
        <time>2018-11-29T11:27:52 01:00</time>
      </trkpt>
      <trkpt lat="48.80449" lon="2.26869">
        <ele>135</ele>
        <time>2018-11-29T11:28:02 01:00</time>
      </trkpt>
      <trkpt lat="48.80458" lon="2.26875">
        <ele>134</ele>
        <time>2018-11-29T11:28:13 01:00</time>
      </trkpt>
      <trkpt lat="48.80466" lon="2.2688">
        <ele>134</ele>
        <time>2018-11-29T11:28:22 01:00</time>
      </trkpt>
      <trkpt lat="48.80475" lon="2.26886">
        <ele>132</ele>
        <time>2018-11-29T11:28:34 01:00</time>
      </trkpt>
      <trkpt lat="48.80484" lon="2.26887">
        <ele>132</ele>
        <time>2018-11-29T11:28:44 01:00</time>
      </trkpt>
      <trkpt lat="48.80493" lon="2.26888">
        <ele>133</ele>
        <time>2018-11-29T11:28:57 01:00</time>
      </trkpt>
      <trkpt lat="48.80502" lon="2.26885">
        <ele>132</ele>
        <time>2018-11-29T11:29:08 01:00</time>
      </trkpt>
      <trkpt lat="48.80508" lon="2.26895">
        <ele>136</ele>
        <time>2018-11-29T11:29:18 01:00</time>
      </trkpt>
      <trkpt lat="48.80518" lon="2.26892">
        <ele>134</ele>
        <time>2018-11-29T11:29:34 01:00</time>
      </trkpt>
      <trkpt lat="48.80527" lon="2.26891">
        <ele>131</ele>
        <time>2018-11-29T11:29:42 01:00</time>
      </trkpt>
      <trkpt lat="48.80531" lon="2.26878">
        <ele>123</ele>
        <time>2018-11-29T11:29:55 01:00</time>
      </trkpt>
      <trkpt lat="48.80537" lon="2.26868">
        <ele>127</ele>
        <time>2018-11-29T11:30:07 01:00</time>
      </trkpt>
      <trkpt lat="48.80547" lon="2.26874">
        <ele>125</ele>
        <time>2018-11-29T11:30:17 01:00</time>
      </trkpt>
      <trkpt lat="48.80554" lon="2.26882">
        <ele>128</ele>
        <time>2018-11-29T11:30:29 01:00</time>
      </trkpt>
      <trkpt lat="48.80563" lon="2.26886">
        <ele>128</ele>
        <time>2018-11-29T11:30:38 01:00</time>
      </trkpt>
      <trkpt lat="48.8057" lon="2.26897">
        <ele>128</ele>
        <time>2018-11-29T11:30:55 01:00</time>
      </trkpt>
      <trkpt lat="48.80578" lon="2.26901">
        <ele>127</ele>
        <time>2018-11-29T11:31:06 01:00</time>
      </trkpt>
      <trkpt lat="48.80587" lon="2.26904">
        <ele>133</ele>
        <time>2018-11-29T11:31:18 01:00</time>
      </trkpt>
      <trkpt lat="48.80595" lon="2.26913">
        <ele>133</ele>
        <time>2018-11-29T11:31:26 01:00</time>
      </trkpt>
      <trkpt lat="48.80597" lon="2.26928">
        <ele>132</ele>
        <time>2018-11-29T11:31:34 01:00</time>
      </trkpt>
      <trkpt lat="48.80607" lon="2.2693">
        <ele>126</ele>
        <time>2018-11-29T11:31:46 01:00</time>
      </trkpt>
      <trkpt lat="48.80614" lon="2.26922">
        <ele>122</ele>
        <time>2018-11-29T11:31:52 01:00</time>
      </trkpt>
      <trkpt lat="48.80621" lon="2.26912">
        <ele>126</ele>
        <time>2018-11-29T11:32:01 01:00</time>
      </trkpt>
      <trkpt lat="48.80626" lon="2.269">
        <ele>132</ele>
        <time>2018-11-29T11:32:11 01:00</time>
      </trkpt>
      <trkpt lat="48.80632" lon="2.26889">
        <ele>134</ele>
        <time>2018-11-29T11:32:21 01:00</time>
      </trkpt>
      <trkpt lat="48.80639" lon="2.26879">
        <ele>137</ele>
        <time>2018-11-29T11:32:28 01:00</time>
      </trkpt>
      <trkpt lat="48.80645" lon="2.26868">
        <ele>139</ele>
        <time>2018-11-29T11:32:36 01:00</time>
      </trkpt>
      <trkpt lat="48.80648" lon="2.26854">
        <ele>139</ele>
        <time>2018-11-29T11:32:45 01:00</time>
      </trkpt>
      <trkpt lat="48.80652" lon="2.26841">
        <ele>143</ele>
        <time>2018-11-29T11:32:55 01:00</time>
      </trkpt>
      <trkpt lat="48.80653" lon="2.26827">
        <ele>140</ele>
        <time>2018-11-29T11:33:04 01:00</time>
      </trkpt>
      <trkpt lat="48.80656" lon="2.26814">
        <ele>140</ele>
        <time>2018-11-29T11:33:14 01:00</time>
      </trkpt>
      <trkpt lat="48.80664" lon="2.26804">
        <ele>131</ele>
        <time>2018-11-29T11:33:26 01:00</time>
      </trkpt>
      <trkpt lat="48.80668" lon="2.26791">
        <ele>127</ele>
        <time>2018-11-29T11:33:41 01:00</time>
      </trkpt>
      <trkpt lat="48.80674" lon="2.26779">
        <ele>131</ele>
        <time>2018-11-29T11:33:51 01:00</time>
      </trkpt>
      <trkpt lat="48.80681" lon="2.26768">
        <ele>132</ele>
        <time>2018-11-29T11:34:02 01:00</time>
      </trkpt>
      <trkpt lat="48.80686" lon="2.26755">
        <ele>132</ele>
        <time>2018-11-29T11:34:09 01:00</time>
      </trkpt>
      <trkpt lat="48.80691" lon="2.26742">
        <ele>134</ele>
        <time>2018-11-29T11:34:17 01:00</time>
      </trkpt>
      <trkpt lat="48.8069" lon="2.26727">
        <ele>139</ele>
        <time>2018-11-29T11:34:29 01:00</time>
      </trkpt>
      <trkpt lat="48.80688" lon="2.26713">
        <ele>146</ele>
        <time>2018-11-29T11:34:42 01:00</time>
      </trkpt>
      <trkpt lat="48.80693" lon="2.26702">
        <ele>147</ele>
        <time>2018-11-29T11:34:56 01:00</time>
      </trkpt>
      <trkpt lat="48.80697" lon="2.26688">
        <ele>148</ele>
        <time>2018-11-29T11:35:09 01:00</time>
      </trkpt>
      <trkpt lat="48.80702" lon="2.26677">
        <ele>141</ele>
        <time>2018-11-29T11:35:24 01:00</time>
      </trkpt>
      <trkpt lat="48.80705" lon="2.26663">
        <ele>140</ele>
        <time>2018-11-29T11:35:35 01:00</time>
      </trkpt>
      <trkpt lat="48.80707" lon="2.26648">
        <ele>136</ele>
        <time>2018-11-29T11:35:44 01:00</time>
      </trkpt>
      <trkpt lat="48.80709" lon="2.26635">
        <ele>140</ele>
        <time>2018-11-29T11:35:52 01:00</time>
      </trkpt>
      <trkpt lat="48.80711" lon="2.26621">
        <ele>136</ele>
        <time>2018-11-29T11:36:01 01:00</time>
      </trkpt>
      <trkpt lat="48.80717" lon="2.2661">
        <ele>142</ele>
        <time>2018-11-29T11:36:22 01:00</time>
      </trkpt>
      <trkpt lat="48.80726" lon="2.26613">
        <ele>139</ele>
        <time>2018-11-29T11:36:38 01:00</time>
      </trkpt>
      <trkpt lat="48.80736" lon="2.26616">
        <ele>138</ele>
        <time>2018-11-29T11:36:47 01:00</time>
      </trkpt>
      <trkpt lat="48.80745" lon="2.26617">
        <ele>138</ele>
        <time>2018-11-29T11:36:56 01:00</time>
      </trkpt>
      <trkpt lat="48.80755" lon="2.26616">
        <ele>136</ele>
        <time>2018-11-29T11:37:09 01:00</time>
      </trkpt>
      <trkpt lat="48.80764" lon="2.26615">
        <ele>136</ele>
        <time>2018-11-29T11:37:19 01:00</time>
      </trkpt>
      <trkpt lat="48.80773" lon="2.26611">
        <ele>136</ele>
        <time>2018-11-29T11:37:40 01:00</time>
      </trkpt>
      <trkpt lat="48.80782" lon="2.26612">
        <ele>142</ele>
        <time>2018-11-29T11:38:13 01:00</time>
      </trkpt>
      <trkpt lat="48.8079" lon="2.26619">
        <ele>141</ele>
        <time>2018-11-29T11:38:23 01:00</time>
      </trkpt>
      <trkpt lat="48.80799" lon="2.26624">
        <ele>141</ele>
        <time>2018-11-29T11:38:34 01:00</time>
      </trkpt>
      <trkpt lat="48.80809" lon="2.26627">
        <ele>143</ele>
        <time>2018-11-29T11:38:51 01:00</time>
      </trkpt>
      <trkpt lat="48.80819" lon="2.26625">
        <ele>141</ele>
        <time>2018-11-29T11:38:58 01:00</time>
      </trkpt>
      <trkpt lat="48.80828" lon="2.26627">
        <ele>142</ele>
        <time>2018-11-29T11:39:11 01:00</time>
      </trkpt>
      <trkpt lat="48.80837" lon="2.26626">
        <ele>139</ele>
        <time>2018-11-29T11:39:22 01:00</time>
      </trkpt>
      <trkpt lat="48.80847" lon="2.26622">
        <ele>140</ele>
        <time>2018-11-29T11:39:30 01:00</time>
      </trkpt>
      <trkpt lat="48.80857" lon="2.26622">
        <ele>142</ele>
        <time>2018-11-29T11:39:39 01:00</time>
      </trkpt>
      <trkpt lat="48.80865" lon="2.26615">
        <ele>140</ele>
        <time>2018-11-29T11:39:48 01:00</time>
      </trkpt>
      <trkpt lat="48.8087" lon="2.26604">
        <ele>141</ele>
        <time>2018-11-29T11:40:02 01:00</time>
      </trkpt>
      <trkpt lat="48.80878" lon="2.26596">
        <ele>141</ele>
        <time>2018-11-29T11:40:10 01:00</time>
      </trkpt>
      <trkpt lat="48.80885" lon="2.26587">
        <ele>143</ele>
        <time>2018-11-29T11:40:23 01:00</time>
      </trkpt>
      <trkpt lat="48.80888" lon="2.26573">
        <ele>141</ele>
        <time>2018-11-29T11:40:34 01:00</time>
      </trkpt>
      <trkpt lat="48.80894" lon="2.26562">
        <ele>144</ele>
        <time>2018-11-29T11:40:43 01:00</time>
      </trkpt>
      <trkpt lat="48.80901" lon="2.26552">
        <ele>145</ele>
        <time>2018-11-29T11:40:51 01:00</time>
      </trkpt>
      <trkpt lat="48.80908" lon="2.26543">
        <ele>144</ele>
        <time>2018-11-29T11:41:00 01:00</time>
      </trkpt>
      <trkpt lat="48.80914" lon="2.26531">
        <ele>143</ele>
        <time>2018-11-29T11:41:10 01:00</time>
      </trkpt>
      <trkpt lat="48.8092" lon="2.26521">
        <ele>145</ele>
        <time>2018-11-29T11:41:19 01:00</time>
      </trkpt>
      <trkpt lat="48.80929" lon="2.26515">
        <ele>147</ele>
        <time>2018-11-29T11:41:30 01:00</time>
      </trkpt>
      <trkpt lat="48.80929" lon="2.265">
        <ele>145</ele>
        <time>2018-11-29T11:41:51 01:00</time>
      </trkpt>
      <trkpt lat="48.80933" lon="2.26487">
        <ele>144</ele>
        <time>2018-11-29T11:42:05 01:00</time>
      </trkpt>
      <trkpt lat="48.80935" lon="2.26474">
        <ele>145</ele>
        <time>2018-11-29T11:42:15 01:00</time>
      </trkpt>
      <trkpt lat="48.80941" lon="2.26463">
        <ele>144</ele>
        <time>2018-11-29T11:42:29 01:00</time>
      </trkpt>
      <trkpt lat="48.80944" lon="2.2645">
        <ele>144</ele>
        <time>2018-11-29T11:42:35 01:00</time>
      </trkpt>
      <trkpt lat="48.80951" lon="2.26439">
        <ele>146</ele>
        <time>2018-11-29T11:42:45 01:00</time>
      </trkpt>
      <trkpt lat="48.80956" lon="2.26426">
        <ele>144</ele>
        <time>2018-11-29T11:42:53 01:00</time>
      </trkpt>
      <trkpt lat="48.80962" lon="2.26415">
        <ele>145</ele>
        <time>2018-11-29T11:43:01 01:00</time>
      </trkpt>
      <trkpt lat="48.80968" lon="2.26402">
        <ele>142</ele>
        <time>2018-11-29T11:43:11 01:00</time>
      </trkpt>
      <trkpt lat="48.80974" lon="2.26392">
        <ele>142</ele>
        <time>2018-11-29T11:43:21 01:00</time>
      </trkpt>
      <trkpt lat="48.80981" lon="2.26382">
        <ele>141</ele>
        <time>2018-11-29T11:43:32 01:00</time>
      </trkpt>
      <trkpt lat="48.80981" lon="2.26367">
        <ele>148</ele>
        <time>2018-11-29T11:43:58 01:00</time>
      </trkpt>
      <trkpt lat="48.80974" lon="2.26356">
        <ele>148</ele>
        <time>2018-11-29T11:44:09 01:00</time>
      </trkpt>
      <trkpt lat="48.80967" lon="2.26346">
        <ele>148</ele>
        <time>2018-11-29T11:44:18 01:00</time>
      </trkpt>
      <trkpt lat="48.8096" lon="2.26336">
        <ele>149</ele>
        <time>2018-11-29T11:44:29 01:00</time>
      </trkpt>
      <trkpt lat="48.80952" lon="2.26328">
        <ele>149</ele>
        <time>2018-11-29T11:44:38 01:00</time>
      </trkpt>
      <trkpt lat="48.80944" lon="2.26319">
        <ele>149</ele>
        <time>2018-11-29T11:44:47 01:00</time>
      </trkpt>
      <trkpt lat="48.80936" lon="2.26313">
        <ele>150</ele>
        <time>2018-11-29T11:44:56 01:00</time>
      </trkpt>
      <trkpt lat="48.80928" lon="2.26305">
        <ele>150</ele>
        <time>2018-11-29T11:45:05 01:00</time>
      </trkpt>
      <trkpt lat="48.8092" lon="2.26297">
        <ele>149</ele>
        <time>2018-11-29T11:45:17 01:00</time>
      </trkpt>
      <trkpt lat="48.80912" lon="2.26289">
        <ele>148</ele>
        <time>2018-11-29T11:45:27 01:00</time>
      </trkpt>
      <trkpt lat="48.80904" lon="2.26282">
        <ele>148</ele>
        <time>2018-11-29T11:45:36 01:00</time>
      </trkpt>
      <trkpt lat="48.80897" lon="2.26274">
        <ele>147</ele>
        <time>2018-11-29T11:45:43 01:00</time>
      </trkpt>
      <trkpt lat="48.8089" lon="2.26264">
        <ele>148</ele>
        <time>2018-11-29T11:45:50 01:00</time>
      </trkpt>
      <trkpt lat="48.80884" lon="2.26254">
        <ele>153</ele>
        <time>2018-11-29T11:46:05 01:00</time>
      </trkpt>
      <trkpt lat="48.80876" lon="2.26245">
        <ele>157</ele>
        <time>2018-11-29T11:46:18 01:00</time>
      </trkpt>
      <trkpt lat="48.80868" lon="2.26239">
        <ele>156</ele>
        <time>2018-11-29T11:46:35 01:00</time>
      </trkpt>
      <trkpt lat="48.80859" lon="2.26233">
        <ele>157</ele>
        <time>2018-11-29T11:46:45 01:00</time>
      </trkpt>
      <trkpt lat="48.80852" lon="2.26225">
        <ele>156</ele>
        <time>2018-11-29T11:46:55 01:00</time>
      </trkpt>
      <trkpt lat="48.80843" lon="2.26218">
        <ele>156</ele>
        <time>2018-11-29T11:47:07 01:00</time>
      </trkpt>
      <trkpt lat="48.80846" lon="2.26204">
        <ele>157</ele>
        <time>2018-11-29T11:47:38 01:00</time>
      </trkpt>
      <trkpt lat="48.80852" lon="2.26194">
        <ele>157</ele>
        <time>2018-11-29T11:47:49 01:00</time>
      </trkpt>
      <trkpt lat="48.80858" lon="2.26183">
        <ele>156</ele>
        <time>2018-11-29T11:48:00 01:00</time>
      </trkpt>
      <trkpt lat="48.80862" lon="2.26169">
        <ele>158</ele>
        <time>2018-11-29T11:48:12 01:00</time>
      </trkpt>
      <trkpt lat="48.80866" lon="2.26156">
        <ele>157</ele>
        <time>2018-11-29T11:48:19 01:00</time>
      </trkpt>
      <trkpt lat="48.80866" lon="2.26141">
        <ele>161</ele>
        <time>2018-11-29T11:48:27 01:00</time>
      </trkpt>
      <trkpt lat="48.80865" lon="2.26127">
        <ele>159</ele>
        <time>2018-11-29T11:48:39 01:00</time>
      </trkpt>
      <trkpt lat="48.80866" lon="2.26112">
        <ele>155</ele>
        <time>2018-11-29T11:48:51 01:00</time>
      </trkpt>
      <trkpt lat="48.8087" lon="2.261">
        <ele>154</ele>
        <time>2018-11-29T11:49:02 01:00</time>
      </trkpt>
      <trkpt lat="48.80876" lon="2.26087">
        <ele>153</ele>
        <time>2018-11-29T11:49:14 01:00</time>
      </trkpt>
      <trkpt lat="48.80882" lon="2.26075">
        <ele>161</ele>
        <time>2018-11-29T11:49:29 01:00</time>
      </trkpt>
      <trkpt lat="48.80876" lon="2.26086">
        <ele>163</ele>
        <time>2018-11-29T11:50:26 01:00</time>
      </trkpt>
      <trkpt lat="48.80874" lon="2.261">
        <ele>165</ele>
        <time>2018-11-29T11:50:35 01:00</time>
      </trkpt>
      <trkpt lat="48.80868" lon="2.26112">
        <ele>163</ele>
        <time>2018-11-29T11:50:43 01:00</time>
      </trkpt>
      <trkpt lat="48.80866" lon="2.26126">
        <ele>162</ele>
        <time>2018-11-29T11:50:52 01:00</time>
      </trkpt>
      <trkpt lat="48.80863" lon="2.26139">
        <ele>162</ele>
        <time>2018-11-29T11:51:40 01:00</time>
      </trkpt>
      <trkpt lat="48.80865" lon="2.26152">
        <ele>163</ele>
        <time>2018-11-29T11:51:48 01:00</time>
      </trkpt>
      <trkpt lat="48.80863" lon="2.26166">
        <ele>163</ele>
        <time>2018-11-29T11:52:50 01:00</time>
      </trkpt>
      <trkpt lat="48.80859" lon="2.26178">
        <ele>163</ele>
        <time>2018-11-29T11:52:58 01:00</time>
      </trkpt>
      <trkpt lat="48.80855" lon="2.26192">
        <ele>163</ele>
        <time>2018-11-29T11:53:06 01:00</time>
      </trkpt>
      <trkpt lat="48.8085" lon="2.26204">
        <ele>167</ele>
        <time>2018-11-29T11:53:13 01:00</time>
      </trkpt>
      <trkpt lat="48.80857" lon="2.26213">
        <ele>165</ele>
        <time>2018-11-29T11:53:20 01:00</time>
      </trkpt>
      <trkpt lat="48.80866" lon="2.26222">
        <ele>159</ele>
        <time>2018-11-29T11:53:29 01:00</time>
      </trkpt>
      <trkpt lat="48.80874" lon="2.26229">
        <ele>157</ele>
        <time>2018-11-29T11:53:39 01:00</time>
      </trkpt>
      <trkpt lat="48.80882" lon="2.26235">
        <ele>156</ele>
        <time>2018-11-29T11:53:49 01:00</time>
      </trkpt>
      <trkpt lat="48.80891" lon="2.26227">
        <ele>158</ele>
        <time>2018-11-29T11:53:59 01:00</time>
      </trkpt>
      <trkpt lat="48.80897" lon="2.26217">
        <ele>157</ele>
        <time>2018-11-29T11:54:09 01:00</time>
      </trkpt>
      <trkpt lat="48.80903" lon="2.26206">
        <ele>157</ele>
        <time>2018-11-29T11:54:20 01:00</time>
      </trkpt>
      <trkpt lat="48.80911" lon="2.26199">
        <ele>155</ele>
        <time>2018-11-29T11:54:31 01:00</time>
      </trkpt>
      <trkpt lat="48.80917" lon="2.26187">
        <ele>156</ele>
        <time>2018-11-29T11:54:40 01:00</time>
      </trkpt>
      <trkpt lat="48.8092" lon="2.26174">
        <ele>158</ele>
        <time>2018-11-29T11:54:48 01:00</time>
      </trkpt>
      <trkpt lat="48.80924" lon="2.2616">
        <ele>155</ele>
        <time>2018-11-29T11:55:11 01:00</time>
      </trkpt>
      <trkpt lat="48.80928" lon="2.26148">
        <ele>155</ele>
        <time>2018-11-29T11:55:20 01:00</time>
      </trkpt>
      <trkpt lat="48.80932" lon="2.26136">
        <ele>158</ele>
        <time>2018-11-29T11:55:29 01:00</time>
      </trkpt>
      <trkpt lat="48.80937" lon="2.26122">
        <ele>155</ele>
        <time>2018-11-29T11:55:41 01:00</time>
      </trkpt>
      <trkpt lat="48.8094" lon="2.26108">
        <ele>157</ele>
        <time>2018-11-29T11:55:49 01:00</time>
      </trkpt>
      <trkpt lat="48.80939" lon="2.26095">
        <ele>157</ele>
        <time>2018-11-29T11:55:57 01:00</time>
      </trkpt>
      <trkpt lat="48.80935" lon="2.26082">
        <ele>156</ele>
        <time>2018-11-29T11:56:05 01:00</time>
      </trkpt>
      <trkpt lat="48.80938" lon="2.26068">
        <ele>156</ele>
        <time>2018-11-29T11:56:35 01:00</time>
      </trkpt>
      <trkpt lat="48.80944" lon="2.26057">
        <ele>155</ele>
        <time>2018-11-29T11:56:44 01:00</time>
      </trkpt>
      <trkpt lat="48.80948" lon="2.26045">
        <ele>153</ele>
        <time>2018-11-29T11:56:53 01:00</time>
      </trkpt>
      <trkpt lat="48.80954" lon="2.26033">
        <ele>152</ele>
        <time>2018-11-29T11:57:02 01:00</time>
      </trkpt>
      <trkpt lat="48.80963" lon="2.26024">
        <ele>153</ele>
        <time>2018-11-29T11:57:11 01:00</time>
      </trkpt>
      <trkpt lat="48.80968" lon="2.26013">
        <ele>153</ele>
        <time>2018-11-29T11:57:21 01:00</time>
      </trkpt>
      <trkpt lat="48.80973" lon="2.25999">
        <ele>151</ele>
        <time>2018-11-29T11:57:30 01:00</time>
      </trkpt>
      <trkpt lat="48.80977" lon="2.25988">
        <ele>152</ele>
        <time>2018-11-29T11:57:39 01:00</time>
      </trkpt>
      <trkpt lat="48.80985" lon="2.25978">
        <ele>151</ele>
        <time>2018-11-29T11:57:57 01:00</time>
      </trkpt>
      <trkpt lat="48.80991" lon="2.25969">
        <ele>153</ele>
        <time>2018-11-29T11:58:07 01:00</time>
      </trkpt>
      <trkpt lat="48.80998" lon="2.25959">
        <ele>151</ele>
        <time>2018-11-29T11:58:18 01:00</time>
      </trkpt>
      <trkpt lat="48.81006" lon="2.25949">
        <ele>150</ele>
        <time>2018-11-29T11:58:28 01:00</time>
      </trkpt>
      <trkpt lat="48.81013" lon="2.2594">
        <ele>149</ele>
        <time>2018-11-29T11:58:37 01:00</time>
      </trkpt>
      <trkpt lat="48.81021" lon="2.25932">
        <ele>149</ele>
        <time>2018-11-29T11:58:46 01:00</time>
      </trkpt>
      <trkpt lat="48.81029" lon="2.25923">
        <ele>149</ele>
        <time>2018-11-29T11:58:55 01:00</time>
      </trkpt>
      <trkpt lat="48.81037" lon="2.25918">
        <ele>150</ele>
        <time>2018-11-29T11:59:05 01:00</time>
      </trkpt>
      <trkpt lat="48.81045" lon="2.25909">
        <ele>150</ele>
        <time>2018-11-29T11:59:11 01:00</time>
      </trkpt>
      <trkpt lat="48.81054" lon="2.25902">
        <ele>148</ele>
        <time>2018-11-29T11:59:18 01:00</time>
      </trkpt>
      <trkpt lat="48.81054" lon="2.25887">
        <ele>146</ele>
        <time>2018-11-29T11:59:25 01:00</time>
      </trkpt>
      <trkpt lat="48.81052" lon="2.25873">
        <ele>148</ele>
        <time>2018-11-29T11:59:32 01:00</time>
      </trkpt>
      <trkpt lat="48.8105" lon="2.25859">
        <ele>146</ele>
        <time>2018-11-29T11:59:39 01:00</time>
      </trkpt>
      <trkpt lat="48.81054" lon="2.25847">
        <ele>145</ele>
        <time>2018-11-29T11:59:50 01:00</time>
      </trkpt>
      <trkpt lat="48.81063" lon="2.25846">
        <ele>149</ele>
        <time>2018-11-29T12:00:19 01:00</time>
      </trkpt>
      <trkpt lat="48.81073" lon="2.25845">
        <ele>151</ele>
        <time>2018-11-29T12:00:30 01:00</time>
      </trkpt>
      <trkpt lat="48.81083" lon="2.25847">
        <ele>152</ele>
        <time>2018-11-29T12:00:41 01:00</time>
      </trkpt>
      <trkpt lat="48.81091" lon="2.2584">
        <ele>161</ele>
        <time>2018-11-29T12:01:12 01:00</time>
      </trkpt>
      <trkpt lat="48.81101" lon="2.25838">
        <ele>156</ele>
        <time>2018-11-29T12:01:20 01:00</time>
      </trkpt>
      <trkpt lat="48.8111" lon="2.25841">
        <ele>151</ele>
        <time>2018-11-29T12:01:30 01:00</time>
      </trkpt>
      <trkpt lat="48.81116" lon="2.25853">
        <ele>148</ele>
        <time>2018-11-29T12:01:39 01:00</time>
      </trkpt>
      <trkpt lat="48.81121" lon="2.25865">
        <ele>145</ele>
        <time>2018-11-29T12:01:47 01:00</time>
      </trkpt>
      <trkpt lat="48.81127" lon="2.25877">
        <ele>146</ele>
        <time>2018-11-29T12:01:57 01:00</time>
      </trkpt>
      <trkpt lat="48.81132" lon="2.25889">
        <ele>146</ele>
        <time>2018-11-29T12:02:05 01:00</time>
      </trkpt>
      <trkpt lat="48.81139" lon="2.25899">
        <ele>141</ele>
        <time>2018-11-29T12:02:16 01:00</time>
      </trkpt>
      <trkpt lat="48.8114" lon="2.25914">
        <ele>141</ele>
        <time>2018-11-29T12:02:23 01:00</time>
      </trkpt>
      <trkpt lat="48.81143" lon="2.25928">
        <ele>140</ele>
        <time>2018-11-29T12:02:32 01:00</time>
      </trkpt>
      <trkpt lat="48.81146" lon="2.25943">
        <ele>142</ele>
        <time>2018-11-29T12:02:41 01:00</time>
      </trkpt>
      <trkpt lat="48.81148" lon="2.25956">
        <ele>142</ele>
        <time>2018-11-29T12:02:49 01:00</time>
      </trkpt>
      <trkpt lat="48.81154" lon="2.25967">
        <ele>143</ele>
        <time>2018-11-29T12:02:57 01:00</time>
      </trkpt>
      <trkpt lat="48.81161" lon="2.25977">
        <ele>143</ele>
        <time>2018-11-29T12:03:05 01:00</time>
      </trkpt>
      <trkpt lat="48.81167" lon="2.25989">
        <ele>146</ele>
        <time>2018-11-29T12:03:14 01:00</time>
      </trkpt>
      <trkpt lat="48.81168" lon="2.26003">
        <ele>146</ele>
        <time>2018-11-29T12:03:30 01:00</time>
      </trkpt>
      <trkpt lat="48.81174" lon="2.26014">
        <ele>144</ele>
        <time>2018-11-29T12:03:41 01:00</time>
      </trkpt>
      <trkpt lat="48.81175" lon="2.26028">
        <ele>144</ele>
        <time>2018-11-29T12:03:50 01:00</time>
      </trkpt>
      <trkpt lat="48.81177" lon="2.26042">
        <ele>142</ele>
        <time>2018-11-29T12:04:00 01:00</time>
      </trkpt>
      <trkpt lat="48.81181" lon="2.26056">
        <ele>141</ele>
        <time>2018-11-29T12:04:12 01:00</time>
      </trkpt>
      <trkpt lat="48.81184" lon="2.2607">
        <ele>139</ele>
        <time>2018-11-29T12:04:19 01:00</time>
      </trkpt>
      <trkpt lat="48.81188" lon="2.26083">
        <ele>139</ele>
        <time>2018-11-29T12:04:26 01:00</time>
      </trkpt>
      <trkpt lat="48.81193" lon="2.26095">
        <ele>141</ele>
        <time>2018-11-29T12:04:34 01:00</time>
      </trkpt>
      <trkpt lat="48.81199" lon="2.26106">
        <ele>142</ele>
        <time>2018-11-29T12:04:43 01:00</time>
      </trkpt>
      <trkpt lat="48.81205" lon="2.26117">
        <ele>143</ele>
        <time>2018-11-29T12:04:52 01:00</time>
      </trkpt>
      <trkpt lat="48.81213" lon="2.26125">
        <ele>146</ele>
        <time>2018-11-29T12:05:08 01:00</time>
      </trkpt>
      <trkpt lat="48.81218" lon="2.26137">
        <ele>144</ele>
        <time>2018-11-29T12:05:19 01:00</time>
      </trkpt>
      <trkpt lat="48.81223" lon="2.26149">
        <ele>140</ele>
        <time>2018-11-29T12:05:30 01:00</time>
      </trkpt>
      <trkpt lat="48.81227" lon="2.26162">
        <ele>137</ele>
        <time>2018-11-29T12:05:44 01:00</time>
      </trkpt>
      <trkpt lat="48.81233" lon="2.26174">
        <ele>139</ele>
        <time>2018-11-29T12:05:53 01:00</time>
      </trkpt>
      <trkpt lat="48.81233" lon="2.26188">
        <ele>139</ele>
        <time>2018-11-29T12:06:01 01:00</time>
      </trkpt>
      <trkpt lat="48.81241" lon="2.26193">
        <ele>136</ele>
        <time>2018-11-29T12:06:12 01:00</time>
      </trkpt>
      <trkpt lat="48.8124" lon="2.26206">
        <ele>138</ele>
        <time>2018-11-29T12:06:20 01:00</time>
      </trkpt>
      <trkpt lat="48.81242" lon="2.26221">
        <ele>137</ele>
        <time>2018-11-29T12:06:28 01:00</time>
      </trkpt>
      <trkpt lat="48.81248" lon="2.26234">
        <ele>138</ele>
        <time>2018-11-29T12:06:36 01:00</time>
      </trkpt>
      <trkpt lat="48.81255" lon="2.26244">
        <ele>137</ele>
        <time>2018-11-29T12:06:44 01:00</time>
      </trkpt>
      <trkpt lat="48.81261" lon="2.26256">
        <ele>136</ele>
        <time>2018-11-29T12:06:54 01:00</time>
      </trkpt>
      <trkpt lat="48.81266" lon="2.26268">
        <ele>133</ele>
        <time>2018-11-29T12:07:04 01:00</time>
      </trkpt>
      <trkpt lat="48.81272" lon="2.2628">
        <ele>133</ele>
        <time>2018-11-29T12:07:11 01:00</time>
      </trkpt>
      <trkpt lat="48.81277" lon="2.26292">
        <ele>135</ele>
        <time>2018-11-29T12:07:18 01:00</time>
      </trkpt>
      <trkpt lat="48.8128" lon="2.26305">
        <ele>135</ele>
        <time>2018-11-29T12:07:25 01:00</time>
      </trkpt>
      <trkpt lat="48.81284" lon="2.26319">
        <ele>137</ele>
        <time>2018-11-29T12:07:33 01:00</time>
      </trkpt>
      <trkpt lat="48.81287" lon="2.26334">
        <ele>135</ele>
        <time>2018-11-29T12:07:41 01:00</time>
      </trkpt>
      <trkpt lat="48.8129" lon="2.26347">
        <ele>136</ele>
        <time>2018-11-29T12:07:49 01:00</time>
      </trkpt>
      <trkpt lat="48.81293" lon="2.2636">
        <ele>135</ele>
        <time>2018-11-29T12:07:58 01:00</time>
      </trkpt>
      <trkpt lat="48.81298" lon="2.26373">
        <ele>134</ele>
        <time>2018-11-29T12:08:07 01:00</time>
      </trkpt>
      <trkpt lat="48.81303" lon="2.26385">
        <ele>136</ele>
        <time>2018-11-29T12:08:16 01:00</time>
      </trkpt>
      <trkpt lat="48.81309" lon="2.26396">
        <ele>137</ele>
        <time>2018-11-29T12:08:26 01:00</time>
      </trkpt>
      <trkpt lat="48.81308" lon="2.2641">
        <ele>139</ele>
        <time>2018-11-29T12:08:34 01:00</time>
      </trkpt>
      <trkpt lat="48.8131" lon="2.26423">
        <ele>137</ele>
        <time>2018-11-29T12:08:44 01:00</time>
      </trkpt>
      <trkpt lat="48.81317" lon="2.26433">
        <ele>135</ele>
        <time>2018-11-29T12:08:55 01:00</time>
      </trkpt>
      <trkpt lat="48.81318" lon="2.26447">
        <ele>137</ele>
        <time>2018-11-29T12:09:05 01:00</time>
      </trkpt>
      <trkpt lat="48.81318" lon="2.26463">
        <ele>141</ele>
        <time>2018-11-29T12:09:14 01:00</time>
      </trkpt>
      <trkpt lat="48.81318" lon="2.26478">
        <ele>143</ele>
        <time>2018-11-29T12:09:21 01:00</time>
      </trkpt>
      <trkpt lat="48.81316" lon="2.26492">
        <ele>143</ele>
        <time>2018-11-29T12:09:27 01:00</time>
      </trkpt>
      <trkpt lat="48.81322" lon="2.26503">
        <ele>137</ele>
        <time>2018-11-29T12:10:02 01:00</time>
      </trkpt>
      <trkpt lat="48.81323" lon="2.26517">
        <ele>138</ele>
        <time>2018-11-29T12:10:11 01:00</time>
      </trkpt>
      <trkpt lat="48.81323" lon="2.26532">
        <ele>140</ele>
        <time>2018-11-29T12:10:21 01:00</time>
      </trkpt>
      <trkpt lat="48.81325" lon="2.26546">
        <ele>139</ele>
        <time>2018-11-29T12:10:30 01:00</time>
      </trkpt>
      <trkpt lat="48.81328" lon="2.26559">
        <ele>139</ele>
        <time>2018-11-29T12:10:38 01:00</time>
      </trkpt>
      <trkpt lat="48.81327" lon="2.26574">
        <ele>138</ele>
        <time>2018-11-29T12:10:48 01:00</time>
      </trkpt>
      <trkpt lat="48.81329" lon="2.26588">
        <ele>140</ele>
        <time>2018-11-29T12:10:55 01:00</time>
      </trkpt>
      <trkpt lat="48.81332" lon="2.26601">
        <ele>141</ele>
        <time>2018-11-29T12:11:04 01:00</time>
      </trkpt>
      <trkpt lat="48.81332" lon="2.26616">
        <ele>142</ele>
        <time>2018-11-29T12:11:13 01:00</time>
      </trkpt>
      <trkpt lat="48.81335" lon="2.26632">
        <ele>141</ele>
        <time>2018-11-29T12:11:20 01:00</time>
      </trkpt>
      <trkpt lat="48.81336" lon="2.26647">
        <ele>140</ele>
        <time>2018-11-29T12:11:27 01:00</time>
      </trkpt>
      <trkpt lat="48.81336" lon="2.26661">
        <ele>138</ele>
        <time>2018-11-29T12:11:35 01:00</time>
      </trkpt>
      <trkpt lat="48.81337" lon="2.26676">
        <ele>139</ele>
        <time>2018-11-29T12:11:45 01:00</time>
      </trkpt>
      <trkpt lat="48.81339" lon="2.26689">
        <ele>139</ele>
        <time>2018-11-29T12:11:55 01:00</time>
      </trkpt>
      <trkpt lat="48.81342" lon="2.26702">
        <ele>139</ele>
        <time>2018-11-29T12:12:05 01:00</time>
      </trkpt>
      <trkpt lat="48.81349" lon="2.26712">
        <ele>140</ele>
        <time>2018-11-29T12:12:15 01:00</time>
      </trkpt>
      <trkpt lat="48.81358" lon="2.26717">
        <ele>143</ele>
        <time>2018-11-29T12:12:22 01:00</time>
      </trkpt>
      <trkpt lat="48.81366" lon="2.26723">
        <ele>144</ele>
        <time>2018-11-29T12:12:29 01:00</time>
      </trkpt>
      <trkpt lat="48.81375" lon="2.26728">
        <ele>144</ele>
        <time>2018-11-29T12:12:39 01:00</time>
      </trkpt>
      <trkpt lat="48.81385" lon="2.26731">
        <ele>142</ele>
        <time>2018-11-29T12:12:51 01:00</time>
      </trkpt>
      <trkpt lat="48.81393" lon="2.26724">
        <ele>141</ele>
        <time>2018-11-29T12:13:01 01:00</time>
      </trkpt>
      <trkpt lat="48.81399" lon="2.26713">
        <ele>142</ele>
        <time>2018-11-29T12:13:09 01:00</time>
      </trkpt>
      <trkpt lat="48.81409" lon="2.26713">
        <ele>140</ele>
        <time>2018-11-29T12:13:19 01:00</time>
      </trkpt>
      <trkpt lat="48.81412" lon="2.267">
        <ele>137</ele>
        <time>2018-11-29T12:13:30 01:00</time>
      </trkpt>
      <trkpt lat="48.81413" lon="2.26685">
        <ele>132</ele>
        <time>2018-11-29T12:13:43 01:00</time>
      </trkpt>
      <trkpt lat="48.81415" lon="2.26671">
        <ele>133</ele>
        <time>2018-11-29T12:13:53 01:00</time>
      </trkpt>
      <trkpt lat="48.81416" lon="2.26658">
        <ele>134</ele>
        <time>2018-11-29T12:14:02 01:00</time>
      </trkpt>
      <trkpt lat="48.81417" lon="2.26643">
        <ele>134</ele>
        <time>2018-11-29T12:14:10 01:00</time>
      </trkpt>
      <trkpt lat="48.8142" lon="2.26628">
        <ele>135</ele>
        <time>2018-11-29T12:14:18 01:00</time>
      </trkpt>
      <trkpt lat="48.81421" lon="2.26613">
        <ele>136</ele>
        <time>2018-11-29T12:14:27 01:00</time>
      </trkpt>
      <trkpt lat="48.81423" lon="2.26598">
        <ele>139</ele>
        <time>2018-11-29T12:14:36 01:00</time>
      </trkpt>
      <trkpt lat="48.81426" lon="2.26584">
        <ele>137</ele>
        <time>2018-11-29T12:14:46 01:00</time>
      </trkpt>
      <trkpt lat="48.81432" lon="2.26572">
        <ele>138</ele>
        <time>2018-11-29T12:14:57 01:00</time>
      </trkpt>
      <trkpt lat="48.81436" lon="2.2656">
        <ele>138</ele>
        <time>2018-11-29T12:15:06 01:00</time>
      </trkpt>
      <trkpt lat="48.81442" lon="2.26548">
        <ele>141</ele>
        <time>2018-11-29T12:15:16 01:00</time>
      </trkpt>
      <trkpt lat="48.81447" lon="2.26536">
        <ele>140</ele>
        <time>2018-11-29T12:15:25 01:00</time>
      </trkpt>
      <trkpt lat="48.81452" lon="2.26524">
        <ele>140</ele>
        <time>2018-11-29T12:15:34 01:00</time>
      </trkpt>
      <trkpt lat="48.81458" lon="2.26513">
        <ele>140</ele>
        <time>2018-11-29T12:15:43 01:00</time>
      </trkpt>
      <trkpt lat="48.81466" lon="2.26503">
        <ele>141</ele>
        <time>2018-11-29T12:15:52 01:00</time>
      </trkpt>
      <trkpt lat="48.81469" lon="2.2649">
        <ele>139</ele>
        <time>2018-11-29T12:16:06 01:00</time>
      </trkpt>
      <trkpt lat="48.81478" lon="2.26485">
        <ele>138</ele>
        <time>2018-11-29T12:16:15 01:00</time>
      </trkpt>
      <trkpt lat="48.81487" lon="2.26484">
        <ele>137</ele>
        <time>2018-11-29T12:16:26 01:00</time>
      </trkpt>
      <trkpt lat="48.81492" lon="2.26496">
        <ele>135</ele>
        <time>2018-11-29T12:16:36 01:00</time>
      </trkpt>
      <trkpt lat="48.81496" lon="2.26508">
        <ele>136</ele>
        <time>2018-11-29T12:16:44 01:00</time>
      </trkpt>
      <trkpt lat="48.81499" lon="2.26521">
        <ele>134</ele>
        <time>2018-11-29T12:16:54 01:00</time>
      </trkpt>
      <trkpt lat="48.81506" lon="2.26531">
        <ele>135</ele>
        <time>2018-11-29T12:17:04 01:00</time>
      </trkpt>
      <trkpt lat="48.81515" lon="2.26532">
        <ele>137</ele>
        <time>2018-11-29T12:17:20 01:00</time>
      </trkpt>
      <trkpt lat="48.81525" lon="2.26532">
        <ele>139</ele>
        <time>2018-11-29T12:17:28 01:00</time>
      </trkpt>
      <trkpt lat="48.81535" lon="2.26531">
        <ele>140</ele>
        <time>2018-11-29T12:17:37 01:00</time>
      </trkpt>
      <trkpt lat="48.81544" lon="2.26529">
        <ele>138</ele>
        <time>2018-11-29T12:17:49 01:00</time>
      </trkpt>
      <trkpt lat="48.81552" lon="2.26524">
        <ele>137</ele>
        <time>2018-11-29T12:18:01 01:00</time>
      </trkpt>
      <trkpt lat="48.8156" lon="2.26516">
        <ele>139</ele>
        <time>2018-11-29T12:18:12 01:00</time>
      </trkpt>
      <trkpt lat="48.81569" lon="2.26514">
        <ele>140</ele>
        <time>2018-11-29T12:18:25 01:00</time>
      </trkpt>
      <trkpt lat="48.81577" lon="2.26509">
        <ele>139</ele>
        <time>2018-11-29T12:18:35 01:00</time>
      </trkpt>
      <trkpt lat="48.81586" lon="2.26512">
        <ele>138</ele>
        <time>2018-11-29T12:18:42 01:00</time>
      </trkpt>
      <trkpt lat="48.81596" lon="2.2651">
        <ele>138</ele>
        <time>2018-11-29T12:18:53 01:00</time>
      </trkpt>
      <trkpt lat="48.81605" lon="2.26507">
        <ele>144</ele>
        <time>2018-11-29T12:19:00 01:00</time>
      </trkpt>
      <trkpt lat="48.81615" lon="2.26505">
        <ele>147</ele>
        <time>2018-11-29T12:19:10 01:00</time>
      </trkpt>
      <trkpt lat="48.81624" lon="2.26501">
        <ele>148</ele>
        <time>2018-11-29T12:19:17 01:00</time>
      </trkpt>
      <trkpt lat="48.81635" lon="2.265">
        <ele>146</ele>
        <time>2018-11-29T12:19:22 01:00</time>
      </trkpt>
      <trkpt lat="48.81644" lon="2.26499">
        <ele>146</ele>
        <time>2018-11-29T12:19:27 01:00</time>
      </trkpt>
      <trkpt lat="48.81653" lon="2.26502">
        <ele>143</ele>
        <time>2018-11-29T12:19:34 01:00</time>
      </trkpt>
      <trkpt lat="48.81663" lon="2.26505">
        <ele>141</ele>
        <time>2018-11-29T12:19:45 01:00</time>
      </trkpt>
      <trkpt lat="48.81671" lon="2.26511">
        <ele>139</ele>
        <time>2018-11-29T12:19:57 01:00</time>
      </trkpt>
      <trkpt lat="48.8168" lon="2.26514">
        <ele>137</ele>
        <time>2018-11-29T12:20:07 01:00</time>
      </trkpt>
      <trkpt lat="48.81689" lon="2.26517">
        <ele>136</ele>
        <time>2018-11-29T12:20:17 01:00</time>
      </trkpt>
      <trkpt lat="48.81698" lon="2.26516">
        <ele>137</ele>
        <time>2018-11-29T12:20:25 01:00</time>
      </trkpt>
      <trkpt lat="48.81707" lon="2.26513">
        <ele>136</ele>
        <time>2018-11-29T12:20:34 01:00</time>
      </trkpt>
      <trkpt lat="48.81716" lon="2.26513">
        <ele>134</ele>
        <time>2018-11-29T12:20:43 01:00</time>
      </trkpt>
      <trkpt lat="48.81726" lon="2.26516">
        <ele>135</ele>
        <time>2018-11-29T12:20:52 01:00</time>
      </trkpt>
      <trkpt lat="48.81735" lon="2.26518">
        <ele>135</ele>
        <time>2018-11-29T12:21:01 01:00</time>
      </trkpt>
      <trkpt lat="48.81744" lon="2.26518">
        <ele>135</ele>
        <time>2018-11-29T12:21:10 01:00</time>
      </trkpt>
      <trkpt lat="48.81754" lon="2.26514">
        <ele>135</ele>
        <time>2018-11-29T12:21:20 01:00</time>
      </trkpt>
      <trkpt lat="48.81763" lon="2.26513">
        <ele>132</ele>
        <time>2018-11-29T12:21:29 01:00</time>
      </trkpt>
      <trkpt lat="48.81772" lon="2.26514">
        <ele>131</ele>
        <time>2018-11-29T12:21:38 01:00</time>
      </trkpt>
      <trkpt lat="48.81772" lon="2.26529">
        <ele>130</ele>
        <time>2018-11-29T12:21:50 01:00</time>
      </trkpt>
      <trkpt lat="48.81775" lon="2.26542">
        <ele>136</ele>
        <time>2018-11-29T12:22:07 01:00</time>
      </trkpt>
      <trkpt lat="48.81778" lon="2.26556">
        <ele>134</ele>
        <time>2018-11-29T12:22:19 01:00</time>
      </trkpt>
      <trkpt lat="48.81774" lon="2.26569">
        <ele>136</ele>
        <time>2018-11-29T12:22:28 01:00</time>
      </trkpt>
      <trkpt lat="48.81778" lon="2.26583">
        <ele>136</ele>
        <time>2018-11-29T12:22:38 01:00</time>
      </trkpt>
      <trkpt lat="48.8178" lon="2.26598">
        <ele>133</ele>
        <time>2018-11-29T12:22:49 01:00</time>
      </trkpt>
      <trkpt lat="48.81782" lon="2.26612">
        <ele>129</ele>
        <time>2018-11-29T12:23:01 01:00</time>
      </trkpt>
      <trkpt lat="48.81779" lon="2.26626">
        <ele>130</ele>
        <time>2018-11-29T12:23:16 01:00</time>
      </trkpt>
      <trkpt lat="48.81773" lon="2.26637">
        <ele>134</ele>
        <time>2018-11-29T12:23:32 01:00</time>
      </trkpt>
      <trkpt lat="48.81771" lon="2.26651">
        <ele>128</ele>
        <time>2018-11-29T12:24:16 01:00</time>
      </trkpt>
      <trkpt lat="48.81762" lon="2.26654">
        <ele>132</ele>
        <time>2018-11-29T12:24:23 01:00</time>
      </trkpt>
      <trkpt lat="48.81752" lon="2.26655">
        <ele>138</ele>
        <time>2018-11-29T12:24:30 01:00</time>
      </trkpt>
      <trkpt lat="48.81743" lon="2.26653">
        <ele>135</ele>
        <time>2018-11-29T12:24:47 01:00</time>
      </trkpt>
      <trkpt lat="48.81734" lon="2.2666">
        <ele>133</ele>
        <time>2018-11-29T12:24:56 01:00</time>
      </trkpt>
      <trkpt lat="48.81725" lon="2.26661">
        <ele>134</ele>
        <time>2018-11-29T12:25:02 01:00</time>
      </trkpt>
      <trkpt lat="48.81716" lon="2.2666">
        <ele>136</ele>
        <time>2018-11-29T12:25:11 01:00</time>
      </trkpt>
      <trkpt lat="48.81707" lon="2.26657">
        <ele>135</ele>
        <time>2018-11-29T12:25:22 01:00</time>
      </trkpt>
      <trkpt lat="48.81699" lon="2.26665">
        <ele>130</ele>
        <time>2018-11-29T12:25:34 01:00</time>
      </trkpt>
      <trkpt lat="48.8169" lon="2.26669">
        <ele>126</ele>
        <time>2018-11-29T12:25:42 01:00</time>
      </trkpt>
      <trkpt lat="48.81684" lon="2.26679">
        <ele>127</ele>
        <time>2018-11-29T12:25:54 01:00</time>
      </trkpt>
      <trkpt lat="48.81674" lon="2.2668">
        <ele>134</ele>
        <time>2018-11-29T12:26:06 01:00</time>
      </trkpt>
      <trkpt lat="48.81666" lon="2.26688">
        <ele>136</ele>
        <time>2018-11-29T12:26:22 01:00</time>
      </trkpt>
      <trkpt lat="48.81659" lon="2.26698">
        <ele>138</ele>
        <time>2018-11-29T12:26:30 01:00</time>
      </trkpt>
      <trkpt lat="48.81663" lon="2.26711">
        <ele>136</ele>
        <time>2018-11-29T12:26:42 01:00</time>
      </trkpt>
      <trkpt lat="48.81673" lon="2.26713">
        <ele>131</ele>
        <time>2018-11-29T12:26:54 01:00</time>
      </trkpt>
      <trkpt lat="48.81682" lon="2.26714">
        <ele>124</ele>
        <time>2018-11-29T12:27:04 01:00</time>
      </trkpt>
      <trkpt lat="48.81691" lon="2.2672">
        <ele>121</ele>
        <time>2018-11-29T12:27:14 01:00</time>
      </trkpt>
      <trkpt lat="48.81694" lon="2.26732">
        <ele>117</ele>
        <time>2018-11-29T12:27:26 01:00</time>
      </trkpt>
      <trkpt lat="48.817" lon="2.26745">
        <ele>116</ele>
        <time>2018-11-29T12:27:36 01:00</time>
      </trkpt>
      <trkpt lat="48.817" lon="2.26759">
        <ele>124</ele>
        <time>2018-11-29T12:27:44 01:00</time>
      </trkpt>
      <trkpt lat="48.81699" lon="2.26773">
        <ele>131</ele>
        <time>2018-11-29T12:28:09 01:00</time>
      </trkpt>
      <trkpt lat="48.81694" lon="2.26785">
        <ele>130</ele>
        <time>2018-11-29T12:28:57 01:00</time>
      </trkpt>
      <trkpt lat="48.81684" lon="2.26784">
        <ele>158</ele>
        <time>2018-11-29T12:29:18 01:00</time>
      </trkpt>
      <trkpt lat="48.81675" lon="2.26786">
        <ele>162</ele>
        <time>2018-11-29T12:29:23 01:00</time>
      </trkpt>
      <trkpt lat="48.81669" lon="2.26776">
        <ele>165</ele>
        <time>2018-11-29T12:30:08 01:00</time>
      </trkpt>
    </trkseg>
  </trk>
</gpx>